AZU8000 SBRF-LEMD
Flight info
| Callsign | AZU8000 |
|---|---|
| Flight time | 7h 40m |
| Altitude | 23000 |
| Route | FNR B623 RAKUD/N0422F270 UB623 CVS/N0453F370 UN873 IPERA N873 LIMAL/N0449F390 N873 ODEGI/N0447F380 N873 GDV N858 VASTO UN858 IBLIV/N0453F400 UN858 AKUDA/N0372F240 UN858 PESAS N858 TLD |
| Aircraft | B763/H-SDE3FGHIM3RWXY/LB1 |
Departure
| Time | 2026-05-06 17:41 |
|---|---|
| Airport | Recife/Guararapes - Gilberto Freyre International Airport (SBRF) |
Arrival
| Time | 2026-05-07 01:22 |
|---|---|
| Airport | Adolfo Suárez Madrid–Barajas Airport (LEMD) |
| Time | Latitude | Longitude | Altitude | Speed | Heading |
|---|---|---|---|---|---|
| 2026-05-06 17:07 | -8.12796 | -34.91874 | 51 ft | 0 kts | 124° |
| 2026-05-06 17:28 | -8.12790 | -34.91882 | 51 ft | 2 kts | 124° |
| 2026-05-06 17:28 | -8.12781 | -34.91895 | 50 ft | 2 kts | 124° |
| 2026-05-06 17:28 | -8.12772 | -34.91906 | 50 ft | 2 kts | 142° |
| 2026-05-06 17:28 | -8.12759 | -34.91914 | 50 ft | 2 kts | 154° |
| 2026-05-06 17:29 | -8.12745 | -34.91920 | 50 ft | 2 kts | 167° |
| 2026-05-06 17:29 | -8.12730 | -34.91922 | 50 ft | 2 kts | 180° |
| 2026-05-06 17:29 | -8.12715 | -34.91921 | 50 ft | 2 kts | 193° |
| 2026-05-06 17:29 | -8.12701 | -34.91916 | 49 ft | 2 kts | 206° |
| 2026-05-06 17:30 | -8.12694 | -34.91913 | 50 ft | 1 kts | 212° |
| 2026-05-06 17:30 | -8.12692 | -34.91911 | 50 ft | 0 kts | 212° |
| 2026-05-06 17:32 | -8.12692 | -34.91912 | 50 ft | 0 kts | 212° |
| 2026-05-06 17:33 | -8.12696 | -34.91914 | 50 ft | 1 kts | 212° |
| 2026-05-06 17:34 | -8.12706 | -34.91920 | 49 ft | 1 kts | 212° |
| 2026-05-06 17:34 | -8.12709 | -34.91922 | 49 ft | 0 kts | 212° |
| 2026-05-06 17:34 | -8.12723 | -34.91931 | 50 ft | 4 kts | 212° |
| 2026-05-06 17:34 | -8.12755 | -34.91953 | 49 ft | 6 kts | 214° |
| 2026-05-06 17:35 | -8.12798 | -34.91983 | 49 ft | 8 kts | 215° |
| 2026-05-06 17:35 | -8.12845 | -34.92017 | 48 ft | 8 kts | 216° |
| 2026-05-06 17:35 | -8.12882 | -34.92054 | 48 ft | 6 kts | 247° |
| 2026-05-06 17:36 | -8.12782 | -34.92122 | 48 ft | 13 kts | 342° |
| 2026-05-06 17:36 | -8.12683 | -34.92155 | 48 ft | 15 kts | 341° |
| 2026-05-06 17:36 | -8.12587 | -34.92188 | 48 ft | 13 kts | 342° |
| 2026-05-06 17:36 | -8.12504 | -34.92217 | 48 ft | 11 kts | 342° |
| 2026-05-06 17:37 | -8.12430 | -34.92240 | 48 ft | 9 kts | 343° |
| 2026-05-06 17:37 | -8.12369 | -34.92260 | 48 ft | 9 kts | 342° |
| 2026-05-06 17:37 | -8.12298 | -34.92283 | 48 ft | 11 kts | 341° |
| 2026-05-06 17:37 | -8.12215 | -34.92311 | 49 ft | 13 kts | 342° |
| 2026-05-06 17:38 | -8.12126 | -34.92341 | 48 ft | 14 kts | 340° |
| 2026-05-06 17:38 | -8.12027 | -34.92375 | 49 ft | 15 kts | 342° |
| 2026-05-06 17:38 | -8.11920 | -34.92409 | 48 ft | 16 kts | 342° |
| 2026-05-06 17:38 | -8.11803 | -34.92449 | 47 ft | 18 kts | 341° |
| 2026-05-06 17:39 | -8.11672 | -34.92490 | 46 ft | 19 kts | 341° |
| 2026-05-06 17:39 | -8.11568 | -34.92547 | 44 ft | 14 kts | 321° |
| 2026-05-06 17:39 | -8.11503 | -34.92601 | 43 ft | 10 kts | 320° |
| 2026-05-06 17:39 | -8.11448 | -34.92651 | 41 ft | 11 kts | 304° |
| 2026-05-06 17:40 | -8.11457 | -34.92700 | 42 ft | 4 kts | 210° |
| 2026-05-06 17:40 | -8.11484 | -34.92698 | 42 ft | 3 kts | 162° |
| 2026-05-06 17:40 | -8.11571 | -34.92670 | 44 ft | 29 kts | 162° |
| 2026-05-06 17:40 | -8.11913 | -34.92556 | 49 ft | 73 kts | 161° |
| 2026-05-06 17:41 | -8.12534 | -34.92351 | 49 ft | 114 kts | 161° |
| 2026-05-06 17:41 | -8.13461 | -34.92044 | 52 ft | 161 kts | 161° |
| 2026-05-06 17:41 | -8.14623 | -34.91695 | 289 ft | 180 kts | 163° |
| 2026-05-06 17:41 | -8.15853 | -34.91341 | 842 ft | 186 kts | 162° |
| 2026-05-06 17:42 | -8.17081 | -34.90947 | 1439 ft | 191 kts | 159° |
| 2026-05-06 17:42 | -8.18362 | -34.90489 | 1900 ft | 198 kts | 159° |
| 2026-05-06 17:42 | -8.19692 | -34.89954 | 2182 ft | 212 kts | 149° |
| 2026-05-06 17:42 | -8.20834 | -34.88880 | 2301 ft | 239 kts | 121° |
| 2026-05-06 17:43 | -8.21301 | -34.87248 | 2848 ft | 250 kts | 90° |
| 2026-05-06 17:43 | -8.20908 | -34.85508 | 3374 ft | 266 kts | 63° |
| 2026-05-06 17:43 | -8.19707 | -34.84103 | 4151 ft | 270 kts | 44° |
| 2026-05-06 17:43 | -8.18357 | -34.82777 | 4886 ft | 273 kts | 50° |
| 2026-05-06 17:44 | -8.17090 | -34.81307 | 4988 ft | 285 kts | 53° |
| 2026-05-06 17:44 | -8.15850 | -34.79758 | 4974 ft | 274 kts | 54° |
| 2026-05-06 17:44 | -8.14696 | -34.78259 | 4977 ft | 267 kts | 55° |
| 2026-05-06 17:44 | -8.13579 | -34.76773 | 4977 ft | 268 kts | 56° |
| 2026-05-06 17:45 | -8.12433 | -34.75225 | 5316 ft | 277 kts | 56° |
| 2026-05-06 17:45 | -8.11319 | -34.73715 | 6287 ft | 271 kts | 56° |
| 2026-05-06 17:45 | -8.10190 | -34.72176 | 6995 ft | 275 kts | 56° |
| 2026-05-06 17:45 | -8.09063 | -34.70639 | 7738 ft | 276 kts | 55° |
| 2026-05-06 17:46 | -8.07912 | -34.69096 | 8482 ft | 278 kts | 55° |
| 2026-05-06 17:46 | -8.06743 | -34.67532 | 9225 ft | 280 kts | 55° |
| 2026-05-06 17:46 | -8.05577 | -34.65972 | 9929 ft | 283 kts | 55° |
| 2026-05-06 17:46 | -8.04376 | -34.64362 | 10365 ft | 297 kts | 55° |
| 2026-05-06 17:47 | -8.03062 | -34.62600 | 10440 ft | 325 kts | 55° |
| 2026-05-06 17:47 | -8.01698 | -34.60778 | 11117 ft | 330 kts | 55° |
| 2026-05-06 17:47 | -8.00291 | -34.58897 | 11771 ft | 336 kts | 55° |
| 2026-05-06 17:47 | -7.98895 | -34.57031 | 12464 ft | 340 kts | 54° |
| 2026-05-06 17:48 | -7.97466 | -34.55120 | 13123 ft | 345 kts | 54° |
| 2026-05-06 17:48 | -7.95997 | -34.53155 | 13782 ft | 349 kts | 54° |
| 2026-05-06 17:48 | -7.94482 | -34.51242 | 14390 ft | 354 kts | 46° |
| 2026-05-06 17:48 | -7.92531 | -34.49718 | 14954 ft | 361 kts | 30° |
| 2026-05-06 17:49 | -7.90276 | -34.48551 | 15558 ft | 365 kts | 28° |
| 2026-05-06 17:49 | -7.88001 | -34.47363 | 16148 ft | 368 kts | 28° |
| 2026-05-06 17:49 | -7.85694 | -34.46176 | 16742 ft | 372 kts | 28° |
| 2026-05-06 17:49 | -7.83377 | -34.44986 | 17327 ft | 375 kts | 27° |
| 2026-05-06 17:50 | -7.81072 | -34.43802 | 17945 ft | 376 kts | 27° |
| 2026-05-06 17:50 | -7.78707 | -34.42590 | 18598 ft | 378 kts | 26° |
| 2026-05-06 17:50 | -7.76350 | -34.41382 | 19170 ft | 382 kts | 26° |
| 2026-05-06 17:50 | -7.73968 | -34.40163 | 19751 ft | 385 kts | 26° |
| 2026-05-06 17:51 | -7.71591 | -34.38945 | 20339 ft | 387 kts | 26° |
| 2026-05-06 17:51 | -7.69170 | -34.37706 | 20891 ft | 389 kts | 25° |
| 2026-05-06 17:51 | -7.66754 | -34.36469 | 21414 ft | 392 kts | 25° |
| 2026-05-06 17:51 | -7.64314 | -34.35220 | 21948 ft | 393 kts | 25° |
| 2026-05-06 17:52 | -7.61877 | -34.33973 | 22437 ft | 395 kts | 25° |
| 2026-05-06 17:52 | -7.59401 | -34.32706 | 22872 ft | 399 kts | 25° |
| 2026-05-06 17:52 | -7.56887 | -34.31421 | 22976 ft | 409 kts | 25° |
| 2026-05-06 17:52 | -7.54298 | -34.30098 | 22985 ft | 421 kts | 25° |
| 2026-05-06 17:53 | -7.51636 | -34.28737 | 22983 ft | 434 kts | 25° |
| 2026-05-06 17:53 | -7.48919 | -34.27347 | 23297 ft | 436 kts | 25° |
| 2026-05-06 17:53 | -7.46342 | -34.26024 | 24708 ft | 412 kts | 24° |
| 2026-05-06 17:53 | -7.43754 | -34.24701 | 25029 ft | 418 kts | 24° |
| 2026-05-06 17:54 | -7.41146 | -34.23370 | 25443 ft | 420 kts | 24° |
| 2026-05-06 17:54 | -7.38545 | -34.22040 | 25848 ft | 422 kts | 24° |
| 2026-05-06 17:54 | -7.35898 | -34.20688 | 26181 ft | 426 kts | 24° |
| 2026-05-06 17:54 | -7.33253 | -34.19336 | 26574 ft | 428 kts | 24° |
| 2026-05-06 17:55 | -7.30585 | -34.17973 | 26875 ft | 432 kts | 24° |
| 2026-05-06 17:55 | -7.27887 | -34.16594 | 27206 ft | 435 kts | 24° |
| 2026-05-06 17:55 | -7.25157 | -34.15200 | 27543 ft | 437 kts | 24° |
| 2026-05-06 17:55 | -7.22420 | -34.13802 | 27854 ft | 441 kts | 24° |
| 2026-05-06 17:56 | -7.19691 | -34.12407 | 28171 ft | 443 kts | 24° |
| 2026-05-06 17:56 | -7.16925 | -34.10995 | 28487 ft | 446 kts | 24° |
| 2026-05-06 17:56 | -7.14142 | -34.09574 | 28748 ft | 449 kts | 24° |
| 2026-05-06 17:56 | -7.11327 | -34.08138 | 29058 ft | 452 kts | 24° |
| 2026-05-06 17:57 | -7.08507 | -34.06698 | 29328 ft | 455 kts | 24° |
| 2026-05-06 17:57 | -7.05687 | -34.05259 | 29687 ft | 455 kts | 23° |
| 2026-05-06 17:57 | -7.02844 | -34.03808 | 29857 ft | 461 kts | 24° |
| 2026-05-06 17:57 | -6.99981 | -34.02348 | 30212 ft | 461 kts | 24° |
| 2026-05-06 17:58 | -6.97074 | -34.00864 | 30396 ft | 465 kts | 24° |
| 2026-05-06 17:58 | -6.94189 | -33.99394 | 30651 ft | 467 kts | 24° |
| 2026-05-06 17:58 | -6.91265 | -33.97902 | 30903 ft | 470 kts | 24° |
| 2026-05-06 17:58 | -6.88364 | -33.96423 | 31182 ft | 471 kts | 24° |
| 2026-05-06 17:59 | -6.85380 | -33.94900 | 31335 ft | 476 kts | 24° |
| 2026-05-06 17:59 | -6.82451 | -33.93407 | 31792 ft | 472 kts | 24° |
| 2026-05-06 17:59 | -6.79523 | -33.91913 | 32232 ft | 470 kts | 24° |
| 2026-05-06 17:59 | -6.76567 | -33.90407 | 32461 ft | 472 kts | 24° |
| 2026-05-06 18:00 | -6.73660 | -33.88924 | 32923 ft | 469 kts | 23° |
| 2026-05-06 18:00 | -6.70743 | -33.87437 | 32939 ft | 466 kts | 23° |
| 2026-05-06 18:00 | -6.64986 | -33.84507 | 32956 ft | 464 kts | 23° |
| 2026-05-06 18:01 | -6.59171 | -33.81545 | 32958 ft | 466 kts | 23° |
| 2026-05-06 18:01 | -6.53400 | -33.78606 | 32953 ft | 465 kts | 23° |
| 2026-05-06 18:02 | -6.47627 | -33.75668 | 32953 ft | 464 kts | 23° |
| 2026-05-06 18:02 | -6.41828 | -33.72716 | 32954 ft | 465 kts | 23° |
| 2026-05-06 18:03 | -6.36033 | -33.69768 | 32958 ft | 467 kts | 23° |
| 2026-05-06 18:03 | -6.30246 | -33.66824 | 32961 ft | 465 kts | 23° |
| 2026-05-06 18:04 | -6.24462 | -33.63883 | 32963 ft | 465 kts | 23° |
| 2026-05-06 18:04 | -6.18674 | -33.60940 | 32965 ft | 464 kts | 23° |
| 2026-05-06 18:05 | -6.12917 | -33.58015 | 32967 ft | 465 kts | 23° |
| 2026-05-06 18:05 | -6.07112 | -33.55064 | 32964 ft | 465 kts | 23° |
| 2026-05-06 18:06 | -6.01361 | -33.52142 | 32964 ft | 464 kts | 23° |
| 2026-05-06 18:06 | -5.95590 | -33.49211 | 32964 ft | 463 kts | 23° |
| 2026-05-06 18:07 | -5.89845 | -33.46295 | 32962 ft | 463 kts | 23° |
| 2026-05-06 18:07 | -5.84086 | -33.43370 | 32960 ft | 462 kts | 23° |
| 2026-05-06 18:08 | -5.78355 | -33.40461 | 32962 ft | 462 kts | 23° |
| 2026-05-06 18:08 | -5.72583 | -33.37533 | 32966 ft | 461 kts | 23° |
| 2026-05-06 18:09 | -5.66870 | -33.34634 | 32959 ft | 460 kts | 23° |
| 2026-05-06 18:09 | -5.61164 | -33.31740 | 32957 ft | 460 kts | 23° |
| 2026-05-06 18:10 | -5.55400 | -33.28818 | 32955 ft | 461 kts | 23° |
| 2026-05-06 18:10 | -5.49678 | -33.25916 | 32953 ft | 460 kts | 23° |
| 2026-05-06 18:11 | -5.43956 | -33.23016 | 32953 ft | 460 kts | 23° |
| 2026-05-06 18:11 | -5.38252 | -33.20126 | 32949 ft | 461 kts | 23° |
| 2026-05-06 18:12 | -5.32496 | -33.17209 | 32942 ft | 460 kts | 23° |
| 2026-05-06 18:12 | -5.26768 | -33.14308 | 32943 ft | 460 kts | 23° |
| 2026-05-06 18:13 | -5.21035 | -33.11405 | 32939 ft | 461 kts | 23° |
| 2026-05-06 18:13 | -5.15318 | -33.08510 | 32938 ft | 460 kts | 23° |
| 2026-05-06 18:14 | -5.09635 | -33.05633 | 32941 ft | 458 kts | 23° |
| 2026-05-06 18:14 | -5.03929 | -33.02744 | 32936 ft | 457 kts | 23° |
| 2026-05-06 18:15 | -4.98236 | -32.99864 | 32944 ft | 459 kts | 23° |
| 2026-05-06 18:15 | -4.92511 | -32.96967 | 32940 ft | 460 kts | 23° |
| 2026-05-06 18:16 | -4.86796 | -32.94077 | 32944 ft | 457 kts | 23° |
| 2026-05-06 18:16 | -4.81125 | -32.91208 | 32943 ft | 456 kts | 24° |
| 2026-05-06 18:17 | -4.75454 | -32.88341 | 32944 ft | 454 kts | 24° |
| 2026-05-06 18:17 | -4.69840 | -32.85502 | 32942 ft | 452 kts | 24° |
| 2026-05-06 18:18 | -4.64215 | -32.82660 | 32943 ft | 453 kts | 24° |
| 2026-05-06 18:18 | -4.58571 | -32.79807 | 32941 ft | 454 kts | 24° |
| 2026-05-06 18:19 | -4.52917 | -32.76951 | 32941 ft | 452 kts | 24° |
| 2026-05-06 18:19 | -4.47309 | -32.74117 | 32943 ft | 452 kts | 24° |
| 2026-05-06 18:20 | -4.41695 | -32.71281 | 32942 ft | 451 kts | 24° |
| 2026-05-06 18:20 | -4.36069 | -32.68441 | 32939 ft | 451 kts | 24° |
| 2026-05-06 18:21 | -4.30444 | -32.65600 | 32940 ft | 450 kts | 25° |
| 2026-05-06 18:21 | -4.24836 | -32.62769 | 32939 ft | 450 kts | 25° |
| 2026-05-06 18:22 | -4.19230 | -32.59939 | 32944 ft | 451 kts | 24° |
| 2026-05-06 18:22 | -4.13636 | -32.57116 | 32940 ft | 451 kts | 25° |
| 2026-05-06 18:23 | -4.08002 | -32.54273 | 32942 ft | 451 kts | 25° |
| 2026-05-06 18:23 | -4.02395 | -32.51444 | 32939 ft | 450 kts | 25° |
| 2026-05-06 18:24 | -3.96789 | -32.48616 | 32946 ft | 450 kts | 25° |
| 2026-05-06 18:24 | -3.91179 | -32.45786 | 32946 ft | 451 kts | 25° |
| 2026-05-06 18:25 | -3.85589 | -32.42964 | 32940 ft | 450 kts | 26° |
| 2026-05-06 18:25 | -3.80016 | -32.40024 | 32943 ft | 450 kts | 26° |
| 2026-05-06 18:26 | -3.74494 | -32.37107 | 32944 ft | 449 kts | 26° |
| 2026-05-06 18:26 | -3.68931 | -32.34171 | 32944 ft | 449 kts | 26° |
| 2026-05-06 18:27 | -3.63412 | -32.31258 | 32945 ft | 450 kts | 26° |
| 2026-05-06 18:27 | -3.57841 | -32.28316 | 32937 ft | 449 kts | 27° |
| 2026-05-06 18:28 | -3.52322 | -32.25404 | 32944 ft | 450 kts | 27° |
| 2026-05-06 18:28 | -3.46771 | -32.22475 | 32939 ft | 449 kts | 27° |
| 2026-05-06 18:29 | -3.41237 | -32.19555 | 32948 ft | 449 kts | 27° |
| 2026-05-06 18:29 | -3.35702 | -32.16635 | 32951 ft | 448 kts | 27° |
| 2026-05-06 18:30 | -3.30176 | -32.13721 | 32940 ft | 448 kts | 27° |
| 2026-05-06 18:30 | -3.24577 | -32.10990 | 32950 ft | 446 kts | 21° |
| 2026-05-06 18:31 | -3.18849 | -32.08587 | 32944 ft | 448 kts | 22° |
| 2026-05-06 18:31 | -3.13080 | -32.06141 | 32938 ft | 448 kts | 22° |
| 2026-05-06 18:32 | -3.07310 | -32.03691 | 32938 ft | 447 kts | 22° |
| 2026-05-06 18:32 | -3.01553 | -32.01246 | 32941 ft | 449 kts | 22° |
| 2026-05-06 18:33 | -2.95803 | -31.98803 | 32936 ft | 448 kts | 22° |
| 2026-05-06 18:33 | -2.90031 | -31.96351 | 32940 ft | 447 kts | 22° |
| 2026-05-06 18:34 | -2.84307 | -31.93919 | 32940 ft | 448 kts | 22° |
| 2026-05-06 18:34 | -2.78551 | -31.91474 | 32941 ft | 449 kts | 22° |
| 2026-05-06 18:35 | -2.72771 | -31.89020 | 32937 ft | 450 kts | 22° |
| 2026-05-06 18:35 | -2.67025 | -31.86581 | 32934 ft | 451 kts | 22° |
| 2026-05-06 18:36 | -2.61243 | -31.84126 | 32932 ft | 450 kts | 22° |
| 2026-05-06 18:36 | -2.55445 | -31.81665 | 32933 ft | 449 kts | 22° |
| 2026-05-06 18:37 | -2.49660 | -31.79209 | 32933 ft | 450 kts | 22° |
| 2026-05-06 18:37 | -2.43917 | -31.76771 | 32932 ft | 450 kts | 22° |
| 2026-05-06 18:38 | -2.38094 | -31.74301 | 32932 ft | 452 kts | 22° |
| 2026-05-06 18:38 | -2.32287 | -31.71836 | 32934 ft | 453 kts | 21° |
| 2026-05-06 18:39 | -2.26484 | -31.69374 | 32951 ft | 453 kts | 22° |
| 2026-05-06 18:40 | -2.17777 | -31.65680 | 32931 ft | 453 kts | 22° |
| 2026-05-06 18:40 | -2.11977 | -31.63218 | 32943 ft | 454 kts | 21° |
| 2026-05-06 18:41 | -2.06156 | -31.60749 | 32942 ft | 453 kts | 22° |
| 2026-05-06 18:41 | -2.00312 | -31.58270 | 32941 ft | 454 kts | 21° |
| 2026-05-06 18:42 | -1.94486 | -31.55800 | 32942 ft | 454 kts | 22° |
| 2026-05-06 18:42 | -1.88656 | -31.53327 | 32943 ft | 453 kts | 22° |
| 2026-05-06 18:43 | -1.82828 | -31.50856 | 32941 ft | 454 kts | 22° |
| 2026-05-06 18:43 | -1.77022 | -31.48394 | 32944 ft | 454 kts | 22° |
| 2026-05-06 18:44 | -1.71199 | -31.45925 | 32943 ft | 454 kts | 22° |
| 2026-05-06 18:44 | -1.65339 | -31.43440 | 32944 ft | 454 kts | 22° |
| 2026-05-06 18:45 | -1.59533 | -31.40979 | 32946 ft | 455 kts | 22° |
| 2026-05-06 18:45 | -1.53712 | -31.38511 | 32939 ft | 452 kts | 22° |
| 2026-05-06 18:46 | -1.47920 | -31.36056 | 32943 ft | 453 kts | 22° |
| 2026-05-06 18:46 | -1.42086 | -31.33584 | 32936 ft | 450 kts | 23° |
| 2026-05-06 18:47 | -1.36336 | -31.31146 | 32943 ft | 450 kts | 23° |
| 2026-05-06 18:47 | -1.30556 | -31.28697 | 32941 ft | 451 kts | 24° |
| 2026-05-06 18:48 | -1.24746 | -31.26234 | 32943 ft | 452 kts | 24° |
| 2026-05-06 18:48 | -1.18939 | -31.23773 | 32945 ft | 454 kts | 24° |
| 2026-05-06 18:49 | -1.13069 | -31.21285 | 32942 ft | 458 kts | 24° |
| 2026-05-06 18:49 | -1.07201 | -31.18799 | 32946 ft | 459 kts | 24° |
| 2026-05-06 18:50 | -1.01304 | -31.16299 | 32946 ft | 456 kts | 24° |
| 2026-05-06 18:50 | -0.95474 | -31.13829 | 32943 ft | 456 kts | 24° |
| 2026-05-06 18:51 | -0.89615 | -31.11347 | 32943 ft | 456 kts | 24° |
| 2026-05-06 18:51 | -0.83727 | -31.08852 | 32942 ft | 456 kts | 24° |
| 2026-05-06 18:52 | -0.77941 | -31.06272 | 32940 ft | 457 kts | 25° |
| 2026-05-06 18:52 | -0.72114 | -31.03660 | 32941 ft | 457 kts | 25° |
| 2026-05-06 18:53 | -0.66314 | -31.01061 | 32940 ft | 457 kts | 25° |
| 2026-05-06 18:53 | -0.60490 | -30.98451 | 32941 ft | 457 kts | 25° |
| 2026-05-06 18:54 | -0.54674 | -30.95845 | 32941 ft | 457 kts | 25° |
| 2026-05-06 18:54 | -0.48884 | -30.93250 | 32941 ft | 457 kts | 25° |
| 2026-05-06 18:55 | -0.43060 | -30.90641 | 32941 ft | 457 kts | 25° |
| 2026-05-06 18:55 | -0.37233 | -30.88030 | 32941 ft | 459 kts | 25° |
| 2026-05-06 18:56 | -0.31390 | -30.85411 | 32941 ft | 459 kts | 25° |
| 2026-05-06 18:56 | -0.25535 | -30.82789 | 32941 ft | 459 kts | 25° |
| 2026-05-06 18:57 | -0.19724 | -30.80185 | 32939 ft | 458 kts | 25° |
| 2026-05-06 18:57 | -0.13876 | -30.77565 | 32938 ft | 458 kts | 25° |
| 2026-05-06 18:58 | -0.08067 | -30.74962 | 32935 ft | 459 kts | 25° |
| 2026-05-06 18:58 | -0.02226 | -30.72345 | 32935 ft | 459 kts | 25° |
| 2026-05-06 18:59 | 0.03609 | -30.69730 | 32940 ft | 460 kts | 25° |
| 2026-05-06 18:59 | 0.09468 | -30.67106 | 32938 ft | 460 kts | 25° |
| 2026-05-06 19:00 | 0.15350 | -30.64471 | 32938 ft | 460 kts | 25° |
| 2026-05-06 19:00 | 0.21175 | -30.61861 | 32941 ft | 459 kts | 25° |
| 2026-05-06 19:01 | 0.26997 | -30.59252 | 32941 ft | 459 kts | 25° |
| 2026-05-06 19:01 | 0.32867 | -30.56622 | 32966 ft | 460 kts | 26° |
| 2026-05-06 19:02 | 0.38747 | -30.53988 | 32943 ft | 462 kts | 25° |
| 2026-05-06 19:02 | 0.44578 | -30.51375 | 32938 ft | 458 kts | 25° |
| 2026-05-06 19:03 | 0.50426 | -30.48755 | 32944 ft | 460 kts | 25° |
| 2026-05-06 19:03 | 0.56271 | -30.46136 | 32941 ft | 460 kts | 25° |
| 2026-05-06 19:04 | 0.62121 | -30.43514 | 32941 ft | 460 kts | 25° |
| 2026-05-06 19:04 | 0.67965 | -30.40895 | 32938 ft | 459 kts | 25° |
| 2026-05-06 19:05 | 0.73794 | -30.38283 | 32940 ft | 459 kts | 25° |
| 2026-05-06 19:05 | 0.79622 | -30.35672 | 32941 ft | 458 kts | 25° |
| 2026-05-06 19:06 | 0.85457 | -30.33057 | 32944 ft | 459 kts | 25° |
| 2026-05-06 19:06 | 0.91311 | -30.30433 | 32943 ft | 460 kts | 25° |
| 2026-05-06 19:07 | 0.97151 | -30.27816 | 32942 ft | 460 kts | 25° |
| 2026-05-06 19:07 | 1.03015 | -30.25188 | 32942 ft | 460 kts | 25° |
| 2026-05-06 19:08 | 1.08844 | -30.22575 | 32944 ft | 458 kts | 25° |
| 2026-05-06 19:08 | 1.14662 | -30.19967 | 32940 ft | 456 kts | 25° |
| 2026-05-06 19:09 | 1.20469 | -30.17364 | 32940 ft | 456 kts | 25° |
| 2026-05-06 19:09 | 1.26270 | -30.14764 | 32936 ft | 456 kts | 25° |
| 2026-05-06 19:10 | 1.32074 | -30.12161 | 32940 ft | 457 kts | 25° |
| 2026-05-06 19:10 | 1.37917 | -30.09538 | 32939 ft | 458 kts | 25° |
| 2026-05-06 19:11 | 1.43715 | -30.06937 | 32939 ft | 457 kts | 25° |
| 2026-05-06 19:11 | 1.49536 | -30.04324 | 32941 ft | 456 kts | 25° |
| 2026-05-06 19:12 | 1.55329 | -30.01723 | 32941 ft | 456 kts | 25° |
| 2026-05-06 19:12 | 1.61143 | -29.99114 | 32940 ft | 456 kts | 25° |
| 2026-05-06 19:13 | 1.66945 | -29.96510 | 32942 ft | 456 kts | 25° |
| 2026-05-06 19:13 | 1.72708 | -29.93922 | 32949 ft | 456 kts | 25° |
| 2026-05-06 19:14 | 1.78530 | -29.91309 | 32945 ft | 456 kts | 25° |
| 2026-05-06 19:14 | 1.84339 | -29.88701 | 32948 ft | 456 kts | 25° |
| 2026-05-06 19:15 | 1.90137 | -29.86097 | 32953 ft | 455 kts | 25° |
| 2026-05-06 19:15 | 1.95920 | -29.83500 | 32964 ft | 456 kts | 25° |
| 2026-05-06 19:16 | 2.01716 | -29.80898 | 32961 ft | 456 kts | 25° |
| 2026-05-06 19:16 | 2.07491 | -29.78305 | 33189 ft | 453 kts | 25° |
| 2026-05-06 19:16 | 2.10379 | -29.77007 | 33354 ft | 454 kts | 25° |
| 2026-05-06 19:17 | 2.13258 | -29.75714 | 33525 ft | 456 kts | 25° |
| 2026-05-06 19:17 | 2.16163 | -29.74409 | 33693 ft | 456 kts | 25° |
| 2026-05-06 19:17 | 2.19071 | -29.73103 | 33861 ft | 456 kts | 25° |
| 2026-05-06 19:17 | 2.21947 | -29.71810 | 34025 ft | 455 kts | 25° |
| 2026-05-06 19:18 | 2.24885 | -29.70491 | 34195 ft | 455 kts | 25° |
| 2026-05-06 19:18 | 2.27774 | -29.69192 | 34364 ft | 454 kts | 25° |
| 2026-05-06 19:18 | 2.30655 | -29.67899 | 34534 ft | 454 kts | 25° |
| 2026-05-06 19:18 | 2.33539 | -29.66603 | 34702 ft | 455 kts | 25° |
| 2026-05-06 19:19 | 2.36414 | -29.65311 | 34872 ft | 455 kts | 25° |
| 2026-05-06 19:19 | 2.42215 | -29.62704 | 34939 ft | 458 kts | 25° |
| 2026-05-06 19:20 | 2.48019 | -29.60096 | 34943 ft | 455 kts | 25° |
| 2026-05-06 19:20 | 2.53798 | -29.57498 | 34947 ft | 455 kts | 25° |
| 2026-05-06 19:21 | 2.59579 | -29.54900 | 34943 ft | 455 kts | 25° |
| 2026-05-06 19:21 | 2.65367 | -29.52298 | 34939 ft | 455 kts | 25° |
| 2026-05-06 19:22 | 2.71167 | -29.49691 | 34935 ft | 456 kts | 25° |
| 2026-05-06 19:22 | 2.76988 | -29.47074 | 34932 ft | 457 kts | 25° |
| 2026-05-06 19:23 | 2.82784 | -29.44468 | 34931 ft | 458 kts | 25° |
| 2026-05-06 19:23 | 2.88610 | -29.41847 | 34928 ft | 458 kts | 25° |
| 2026-05-06 19:24 | 2.94463 | -29.39215 | 34927 ft | 459 kts | 25° |
| 2026-05-06 19:24 | 3.00295 | -29.36591 | 34928 ft | 459 kts | 25° |
| 2026-05-06 19:25 | 3.06090 | -29.33985 | 34928 ft | 458 kts | 25° |
| 2026-05-06 19:25 | 3.11913 | -29.31364 | 34927 ft | 458 kts | 25° |
| 2026-05-06 19:26 | 3.17745 | -29.28741 | 34928 ft | 459 kts | 25° |
| 2026-05-06 19:26 | 3.23599 | -29.26106 | 34926 ft | 459 kts | 25° |
| 2026-05-06 19:27 | 3.29432 | -29.23480 | 34928 ft | 460 kts | 25° |
| 2026-05-06 19:27 | 3.35310 | -29.20834 | 34927 ft | 461 kts | 25° |
| 2026-05-06 19:28 | 3.41156 | -29.18203 | 34928 ft | 460 kts | 25° |
| 2026-05-06 19:28 | 3.46988 | -29.15578 | 34926 ft | 460 kts | 25° |
| 2026-05-06 19:29 | 3.52846 | -29.12941 | 34926 ft | 461 kts | 25° |
| 2026-05-06 19:29 | 3.58730 | -29.10292 | 34928 ft | 461 kts | 25° |
| 2026-05-06 19:30 | 3.64593 | -29.07652 | 34927 ft | 461 kts | 25° |
| 2026-05-06 19:30 | 3.70439 | -29.05019 | 34933 ft | 462 kts | 25° |
| 2026-05-06 19:31 | 3.76323 | -29.02369 | 34939 ft | 462 kts | 25° |
| 2026-05-06 19:31 | 3.85138 | -28.98398 | 34948 ft | 462 kts | 25° |
| 2026-05-06 19:32 | 3.90986 | -28.95763 | 34944 ft | 464 kts | 25° |
| 2026-05-06 19:32 | 3.96907 | -28.93095 | 34948 ft | 465 kts | 25° |
| 2026-05-06 19:33 | 4.02823 | -28.90428 | 34950 ft | 464 kts | 25° |
| 2026-05-06 19:33 | 4.08686 | -28.87786 | 34950 ft | 464 kts | 25° |
| 2026-05-06 19:34 | 4.14601 | -28.85119 | 34943 ft | 463 kts | 25° |
| 2026-05-06 19:34 | 4.20503 | -28.82457 | 34948 ft | 465 kts | 25° |
| 2026-05-06 19:35 | 4.26388 | -28.79803 | 34946 ft | 465 kts | 25° |
| 2026-05-06 19:35 | 4.32306 | -28.77134 | 34947 ft | 466 kts | 25° |
| 2026-05-06 19:36 | 4.38250 | -28.74452 | 34947 ft | 465 kts | 25° |
| 2026-05-06 19:36 | 4.44161 | -28.71785 | 34948 ft | 465 kts | 25° |
| 2026-05-06 19:37 | 4.50061 | -28.69122 | 34948 ft | 466 kts | 25° |
| 2026-05-06 19:37 | 4.54987 | -28.66898 | 34947 ft | 466 kts | 25° |
| 2026-05-06 19:38 | 4.61928 | -28.63765 | 34947 ft | 466 kts | 25° |
| 2026-05-06 19:38 | 4.67821 | -28.61104 | 34952 ft | 466 kts | 25° |
| 2026-05-06 19:39 | 4.73771 | -28.58416 | 34950 ft | 467 kts | 25° |
| 2026-05-06 19:39 | 4.79671 | -28.55751 | 34949 ft | 466 kts | 25° |
| 2026-05-06 19:40 | 4.85631 | -28.53058 | 34950 ft | 467 kts | 24° |
| 2026-05-06 19:40 | 4.91583 | -28.50369 | 34950 ft | 468 kts | 24° |
| 2026-05-06 19:41 | 4.97518 | -28.47686 | 34949 ft | 467 kts | 24° |
| 2026-05-06 19:41 | 5.03429 | -28.45014 | 34950 ft | 468 kts | 24° |
| 2026-05-06 19:42 | 5.09410 | -28.42309 | 34951 ft | 468 kts | 24° |
| 2026-05-06 19:42 | 5.15338 | -28.39628 | 34949 ft | 468 kts | 24° |
| 2026-05-06 19:43 | 5.21270 | -28.36945 | 34948 ft | 468 kts | 24° |
| 2026-05-06 19:43 | 5.27206 | -28.34259 | 34948 ft | 469 kts | 24° |
| 2026-05-06 19:44 | 5.33195 | -28.31549 | 34946 ft | 468 kts | 24° |
| 2026-05-06 19:44 | 5.39123 | -28.28866 | 34950 ft | 469 kts | 24° |
| 2026-05-06 19:45 | 5.45115 | -28.26152 | 34948 ft | 469 kts | 24° |
| 2026-05-06 19:45 | 5.51075 | -28.23454 | 34948 ft | 469 kts | 24° |
| 2026-05-06 19:46 | 5.57013 | -28.20764 | 34951 ft | 469 kts | 24° |
| 2026-05-06 19:46 | 5.62990 | -28.18056 | 34955 ft | 470 kts | 24° |
| 2026-05-06 19:47 | 5.68932 | -28.15364 | 34965 ft | 469 kts | 24° |
| 2026-05-06 19:47 | 5.74887 | -28.12664 | 34965 ft | 470 kts | 24° |
| 2026-05-06 19:48 | 5.80852 | -28.09961 | 34964 ft | 470 kts | 24° |
| 2026-05-06 19:48 | 5.86857 | -28.07237 | 34968 ft | 470 kts | 24° |
| 2026-05-06 19:49 | 5.92793 | -28.04544 | 34968 ft | 470 kts | 24° |
| 2026-05-06 19:49 | 5.98805 | -28.01817 | 34972 ft | 471 kts | 24° |
| 2026-05-06 19:50 | 6.04758 | -27.99116 | 34972 ft | 470 kts | 24° |
| 2026-05-06 19:50 | 6.10744 | -27.96399 | 34971 ft | 470 kts | 24° |
| 2026-05-06 19:51 | 6.16725 | -27.93684 | 34969 ft | 471 kts | 24° |
| 2026-05-06 19:51 | 6.22723 | -27.90960 | 34972 ft | 472 kts | 24° |
| 2026-05-06 19:52 | 6.28704 | -27.88243 | 34968 ft | 471 kts | 24° |
| 2026-05-06 19:52 | 6.34686 | -27.85525 | 34966 ft | 470 kts | 24° |
| 2026-05-06 19:53 | 6.40641 | -27.82819 | 34968 ft | 471 kts | 24° |
| 2026-05-06 19:53 | 6.46651 | -27.80086 | 34967 ft | 472 kts | 24° |
| 2026-05-06 19:54 | 6.52642 | -27.77363 | 34968 ft | 473 kts | 24° |
| 2026-05-06 19:54 | 6.58642 | -27.74634 | 34972 ft | 473 kts | 24° |
| 2026-05-06 19:55 | 6.64669 | -27.71892 | 34969 ft | 471 kts | 24° |
| 2026-05-06 19:55 | 6.70663 | -27.69164 | 34975 ft | 472 kts | 24° |
| 2026-05-06 19:56 | 6.76629 | -27.66448 | 34968 ft | 473 kts | 24° |
| 2026-05-06 19:56 | 6.82663 | -27.63700 | 34969 ft | 473 kts | 23° |
| 2026-05-06 19:57 | 6.88689 | -27.60956 | 34972 ft | 474 kts | 23° |
| 2026-05-06 19:57 | 6.94694 | -27.58222 | 34975 ft | 475 kts | 23° |
| 2026-05-06 19:58 | 7.00705 | -27.55483 | 34976 ft | 473 kts | 23° |
| 2026-05-06 19:58 | 7.06731 | -27.52737 | 34977 ft | 474 kts | 23° |
| 2026-05-06 19:59 | 7.12745 | -27.49995 | 34976 ft | 474 kts | 23° |
| 2026-05-06 19:59 | 7.18752 | -27.47255 | 34975 ft | 474 kts | 23° |
| 2026-05-06 20:00 | 7.24775 | -27.44509 | 34971 ft | 474 kts | 23° |
| 2026-05-06 20:00 | 7.30798 | -27.41759 | 34975 ft | 476 kts | 23° |
| 2026-05-06 20:01 | 7.36864 | -27.38991 | 34971 ft | 475 kts | 23° |
| 2026-05-06 20:01 | 7.42870 | -27.36249 | 34972 ft | 475 kts | 23° |
| 2026-05-06 20:02 | 7.48897 | -27.33497 | 34968 ft | 475 kts | 23° |
| 2026-05-06 20:02 | 7.54957 | -27.30729 | 34971 ft | 475 kts | 23° |
| 2026-05-06 20:03 | 7.60984 | -27.27974 | 34981 ft | 475 kts | 23° |
| 2026-05-06 20:03 | 7.67010 | -27.25221 | 34983 ft | 475 kts | 23° |
| 2026-05-06 20:04 | 7.73034 | -27.22466 | 34984 ft | 476 kts | 22° |
| 2026-05-06 20:04 | 7.79097 | -27.19693 | 34983 ft | 476 kts | 22° |
| 2026-05-06 20:05 | 7.85133 | -27.16930 | 34990 ft | 477 kts | 22° |
| 2026-05-06 20:05 | 7.91185 | -27.14160 | 34987 ft | 476 kts | 22° |
| 2026-05-06 20:06 | 7.97244 | -27.11386 | 34989 ft | 476 kts | 22° |
| 2026-05-06 20:06 | 8.03277 | -27.08623 | 34986 ft | 477 kts | 22° |
| 2026-05-06 20:07 | 8.09350 | -27.05841 | 34990 ft | 476 kts | 22° |
| 2026-05-06 20:07 | 8.15366 | -27.03084 | 34981 ft | 477 kts | 22° |
| 2026-05-06 20:08 | 8.21435 | -27.00302 | 34975 ft | 476 kts | 22° |
| 2026-05-06 20:08 | 8.27473 | -26.97533 | 34974 ft | 476 kts | 22° |
| 2026-05-06 20:09 | 8.33488 | -26.94773 | 34978 ft | 477 kts | 22° |
| 2026-05-06 20:09 | 8.39539 | -26.91997 | 34982 ft | 477 kts | 22° |
| 2026-05-06 20:10 | 8.45609 | -26.89210 | 34979 ft | 477 kts | 22° |
| 2026-05-06 20:10 | 8.51660 | -26.86431 | 34979 ft | 477 kts | 22° |
| 2026-05-06 20:11 | 8.57701 | -26.83656 | 34981 ft | 477 kts | 22° |
| 2026-05-06 20:11 | 8.63768 | -26.80866 | 34983 ft | 477 kts | 22° |
| 2026-05-06 20:12 | 8.69834 | -26.78075 | 34985 ft | 477 kts | 22° |
| 2026-05-06 20:12 | 8.75874 | -26.75296 | 34987 ft | 477 kts | 22° |
| 2026-05-06 20:13 | 8.81924 | -26.72512 | 34989 ft | 477 kts | 22° |
| 2026-05-06 20:13 | 8.87986 | -26.69721 | 34987 ft | 477 kts | 22° |
| 2026-05-06 20:14 | 8.94024 | -26.66939 | 34986 ft | 478 kts | 22° |
| 2026-05-06 20:14 | 9.00101 | -26.64139 | 34985 ft | 478 kts | 21° |
| 2026-05-06 20:15 | 9.06157 | -26.61348 | 34973 ft | 478 kts | 21° |
| 2026-05-06 20:15 | 9.12195 | -26.58563 | 34974 ft | 478 kts | 22° |
| 2026-05-06 20:16 | 9.18273 | -26.55759 | 34971 ft | 478 kts | 21° |
| 2026-05-06 20:16 | 9.24330 | -26.52964 | 34974 ft | 478 kts | 22° |
| 2026-05-06 20:17 | 9.30388 | -26.50167 | 34977 ft | 479 kts | 22° |
| 2026-05-06 20:17 | 9.36504 | -26.47342 | 34976 ft | 479 kts | 21° |
| 2026-05-06 20:18 | 9.42545 | -26.44552 | 34975 ft | 479 kts | 22° |
| 2026-05-06 20:18 | 9.48621 | -26.41743 | 34982 ft | 479 kts | 21° |
| 2026-05-06 20:19 | 9.54710 | -26.38928 | 34981 ft | 480 kts | 21° |
| 2026-05-06 20:19 | 9.60793 | -26.36114 | 34983 ft | 480 kts | 21° |
| 2026-05-06 20:20 | 9.66881 | -26.33297 | 34971 ft | 481 kts | 21° |
| 2026-05-06 20:20 | 9.72989 | -26.30469 | 34976 ft | 481 kts | 21° |
| 2026-05-06 20:21 | 9.79063 | -26.27657 | 34971 ft | 482 kts | 21° |
| 2026-05-06 20:21 | 9.85202 | -26.24812 | 34969 ft | 483 kts | 21° |
| 2026-05-06 20:22 | 9.91299 | -26.21986 | 34967 ft | 482 kts | 21° |
| 2026-05-06 20:22 | 9.97415 | -26.19150 | 34978 ft | 481 kts | 21° |
| 2026-05-06 20:23 | 10.03517 | -26.16319 | 34990 ft | 482 kts | 21° |
| 2026-05-06 20:23 | 10.09605 | -26.13494 | 34990 ft | 482 kts | 21° |
| 2026-05-06 20:24 | 10.15739 | -26.10646 | 34990 ft | 482 kts | 21° |
| 2026-05-06 20:24 | 10.21837 | -26.07814 | 34994 ft | 483 kts | 21° |
| 2026-05-06 20:25 | 10.27966 | -26.04966 | 34993 ft | 482 kts | 21° |
| 2026-05-06 20:25 | 10.34086 | -26.02121 | 34997 ft | 482 kts | 21° |
| 2026-05-06 20:26 | 10.40175 | -25.99289 | 34991 ft | 481 kts | 21° |
| 2026-05-06 20:26 | 10.46269 | -25.96454 | 34988 ft | 480 kts | 21° |
| 2026-05-06 20:27 | 10.52335 | -25.93631 | 34992 ft | 479 kts | 21° |
| 2026-05-06 20:27 | 10.58442 | -25.90787 | 34992 ft | 481 kts | 21° |
| 2026-05-06 20:28 | 10.64514 | -25.87958 | 34994 ft | 481 kts | 21° |
| 2026-05-06 20:28 | 10.70614 | -25.85114 | 34994 ft | 480 kts | 21° |
| 2026-05-06 20:29 | 10.76660 | -25.82295 | 34988 ft | 480 kts | 21° |
| 2026-05-06 20:29 | 10.82747 | -25.79456 | 34994 ft | 480 kts | 21° |
| 2026-05-06 20:30 | 10.91880 | -25.75193 | 34996 ft | 479 kts | 21° |
| 2026-05-06 20:31 | 10.97943 | -25.72362 | 34994 ft | 479 kts | 21° |
| 2026-05-06 20:31 | 11.04018 | -25.69524 | 34994 ft | 478 kts | 21° |
| 2026-05-06 20:32 | 11.10075 | -25.66692 | 35002 ft | 480 kts | 21° |
| 2026-05-06 20:32 | 11.16132 | -25.63859 | 34994 ft | 479 kts | 20° |
| 2026-05-06 20:33 | 11.22218 | -25.61012 | 34994 ft | 479 kts | 21° |
| 2026-05-06 20:33 | 11.28308 | -25.58161 | 34994 ft | 480 kts | 20° |
| 2026-05-06 20:34 | 11.34413 | -25.55302 | 34994 ft | 480 kts | 20° |
| 2026-05-06 20:34 | 11.40470 | -25.52464 | 34996 ft | 480 kts | 20° |
| 2026-05-06 20:35 | 11.46554 | -25.49612 | 34999 ft | 480 kts | 20° |
| 2026-05-06 20:35 | 11.52630 | -25.46763 | 34993 ft | 480 kts | 20° |
| 2026-05-06 20:36 | 11.58736 | -25.43898 | 34999 ft | 481 kts | 20° |
| 2026-05-06 20:36 | 11.64846 | -25.41030 | 34997 ft | 480 kts | 20° |
| 2026-05-06 20:37 | 11.70916 | -25.38179 | 34997 ft | 481 kts | 20° |
| 2026-05-06 20:37 | 11.76994 | -25.35324 | 35003 ft | 481 kts | 20° |
| 2026-05-06 20:38 | 11.83098 | -25.32454 | 34991 ft | 480 kts | 20° |
| 2026-05-06 20:38 | 11.89186 | -25.29590 | 34989 ft | 482 kts | 20° |
| 2026-05-06 20:39 | 11.95321 | -25.26703 | 34991 ft | 483 kts | 20° |
| 2026-05-06 20:39 | 12.01406 | -25.23838 | 34988 ft | 481 kts | 20° |
| 2026-05-06 20:40 | 12.07500 | -25.20969 | 34988 ft | 483 kts | 20° |
| 2026-05-06 20:40 | 12.13615 | -25.18086 | 34989 ft | 484 kts | 20° |
| 2026-05-06 20:41 | 12.19734 | -25.15199 | 34989 ft | 483 kts | 20° |
| 2026-05-06 20:41 | 12.25830 | -25.12324 | 34986 ft | 482 kts | 20° |
| 2026-05-06 20:42 | 12.31968 | -25.09428 | 34987 ft | 484 kts | 20° |
| 2026-05-06 20:42 | 12.38098 | -25.06532 | 34988 ft | 486 kts | 19° |
| 2026-05-06 20:43 | 12.44225 | -25.03637 | 34987 ft | 485 kts | 19° |
| 2026-05-06 20:43 | 12.50364 | -25.00736 | 34989 ft | 486 kts | 19° |
| 2026-05-06 20:44 | 12.56539 | -24.97815 | 34996 ft | 490 kts | 19° |
| 2026-05-06 20:44 | 12.62725 | -24.94887 | 35012 ft | 489 kts | 19° |
| 2026-05-06 20:45 | 12.68928 | -24.91950 | 35008 ft | 488 kts | 19° |
| 2026-05-06 20:45 | 12.75100 | -24.89025 | 35014 ft | 491 kts | 19° |
| 2026-05-06 20:46 | 12.81320 | -24.86078 | 35014 ft | 490 kts | 19° |
| 2026-05-06 20:46 | 12.87497 | -24.83147 | 35014 ft | 489 kts | 19° |
| 2026-05-06 20:47 | 12.93690 | -24.80210 | 35020 ft | 490 kts | 19° |
| 2026-05-06 20:47 | 12.99911 | -24.77255 | 35021 ft | 492 kts | 19° |
| 2026-05-06 20:48 | 13.06093 | -24.74318 | 35018 ft | 490 kts | 19° |
| 2026-05-06 20:48 | 13.12283 | -24.71377 | 35010 ft | 491 kts | 19° |
| 2026-05-06 20:49 | 13.18500 | -24.68420 | 35013 ft | 491 kts | 19° |
| 2026-05-06 20:49 | 13.24701 | -24.65469 | 35009 ft | 489 kts | 19° |
| 2026-05-06 20:50 | 13.30902 | -24.62517 | 35013 ft | 493 kts | 19° |
| 2026-05-06 20:50 | 13.37135 | -24.59547 | 35005 ft | 491 kts | 19° |
| 2026-05-06 20:51 | 13.43349 | -24.56585 | 35006 ft | 491 kts | 19° |
| 2026-05-06 20:51 | 13.49583 | -24.53614 | 35011 ft | 494 kts | 19° |
| 2026-05-06 20:52 | 13.55814 | -24.50639 | 35006 ft | 493 kts | 19° |
| 2026-05-06 20:52 | 13.62038 | -24.47666 | 35009 ft | 490 kts | 19° |
| 2026-05-06 20:53 | 13.68270 | -24.44690 | 35010 ft | 493 kts | 19° |
| 2026-05-06 20:53 | 13.74496 | -24.41691 | 35015 ft | 493 kts | 19° |
| 2026-05-06 20:54 | 13.80691 | -24.38701 | 35016 ft | 492 kts | 19° |
| 2026-05-06 20:54 | 13.86935 | -24.35686 | 35015 ft | 492 kts | 19° |
| 2026-05-06 20:55 | 13.93151 | -24.32683 | 35000 ft | 494 kts | 20° |
| 2026-05-06 20:55 | 13.99362 | -24.29679 | 34998 ft | 492 kts | 20° |
| 2026-05-06 20:56 | 14.05592 | -24.26666 | 34992 ft | 495 kts | 20° |
| 2026-05-06 20:56 | 14.11877 | -24.23623 | 34982 ft | 497 kts | 20° |
| 2026-05-06 20:57 | 14.18115 | -24.20601 | 34984 ft | 496 kts | 19° |
| 2026-05-06 20:57 | 14.24357 | -24.17575 | 34992 ft | 496 kts | 19° |
| 2026-05-06 20:58 | 14.30651 | -24.14524 | 34993 ft | 496 kts | 20° |
| 2026-05-06 20:58 | 14.36911 | -24.11485 | 34996 ft | 498 kts | 19° |
| 2026-05-06 20:59 | 14.43170 | -24.08448 | 34992 ft | 497 kts | 19° |
| 2026-05-06 20:59 | 14.49452 | -24.05393 | 34993 ft | 498 kts | 19° |
| 2026-05-06 21:00 | 14.55725 | -24.02345 | 34991 ft | 498 kts | 19° |
| 2026-05-06 21:00 | 14.62007 | -23.99289 | 34992 ft | 499 kts | 19° |
| 2026-05-06 21:01 | 14.68297 | -23.96227 | 34992 ft | 499 kts | 19° |
| 2026-05-06 21:01 | 14.74573 | -23.93169 | 34994 ft | 500 kts | 19° |
| 2026-05-06 21:02 | 14.80896 | -23.90087 | 34993 ft | 501 kts | 19° |
| 2026-05-06 21:02 | 14.87175 | -23.87024 | 34995 ft | 496 kts | 19° |
| 2026-05-06 21:03 | 14.93463 | -23.83957 | 35010 ft | 499 kts | 19° |
| 2026-05-06 21:03 | 14.99778 | -23.80872 | 35013 ft | 502 kts | 19° |
| 2026-05-06 21:04 | 15.06098 | -23.77783 | 35023 ft | 501 kts | 19° |
| 2026-05-06 21:04 | 15.12403 | -23.74698 | 35006 ft | 498 kts | 19° |
| 2026-05-06 21:05 | 15.18700 | -23.71621 | 35027 ft | 501 kts | 19° |
| 2026-05-06 21:05 | 15.25015 | -23.68525 | 35027 ft | 501 kts | 19° |
| 2026-05-06 21:06 | 15.31321 | -23.65436 | 35024 ft | 502 kts | 18° |
| 2026-05-06 21:06 | 15.37671 | -23.62322 | 35020 ft | 501 kts | 19° |
| 2026-05-06 21:07 | 15.43918 | -23.59257 | 35006 ft | 498 kts | 19° |
| 2026-05-06 21:07 | 15.50263 | -23.56144 | 35027 ft | 503 kts | 19° |
| 2026-05-06 21:08 | 15.56555 | -23.53050 | 35025 ft | 500 kts | 18° |
| 2026-05-06 21:08 | 15.62857 | -23.49951 | 35045 ft | 498 kts | 18° |
| 2026-05-06 21:09 | 15.69121 | -23.46871 | 35043 ft | 500 kts | 18° |
| 2026-05-06 21:09 | 15.75436 | -23.43763 | 35042 ft | 502 kts | 18° |
| 2026-05-06 21:10 | 15.81749 | -23.40651 | 35041 ft | 501 kts | 18° |
| 2026-05-06 21:10 | 15.88079 | -23.37531 | 35038 ft | 502 kts | 18° |
| 2026-05-06 21:11 | 15.94396 | -23.34415 | 35033 ft | 504 kts | 18° |
| 2026-05-06 21:11 | 16.00711 | -23.31296 | 35021 ft | 502 kts | 18° |
| 2026-05-06 21:12 | 16.07026 | -23.28177 | 35028 ft | 502 kts | 18° |
| 2026-05-06 21:12 | 16.13370 | -23.25039 | 35022 ft | 500 kts | 18° |
| 2026-05-06 21:13 | 16.19646 | -23.21936 | 35028 ft | 501 kts | 18° |
| 2026-05-06 21:13 | 16.25918 | -23.18830 | 35025 ft | 499 kts | 17° |
| 2026-05-06 21:14 | 16.32191 | -23.15722 | 35014 ft | 499 kts | 18° |
| 2026-05-06 21:14 | 16.38489 | -23.12600 | 35006 ft | 500 kts | 18° |
| 2026-05-06 21:15 | 16.44764 | -23.09487 | 35015 ft | 501 kts | 17° |
| 2026-05-06 21:15 | 16.51065 | -23.06357 | 35013 ft | 498 kts | 17° |
| 2026-05-06 21:16 | 16.57334 | -23.03241 | 35010 ft | 497 kts | 17° |
| 2026-05-06 21:16 | 16.63572 | -23.00142 | 35017 ft | 498 kts | 17° |
| 2026-05-06 21:17 | 16.69859 | -22.97013 | 35032 ft | 500 kts | 18° |
| 2026-05-06 21:17 | 16.76048 | -22.93648 | 35032 ft | 502 kts | 22° |
| 2026-05-06 21:18 | 16.82068 | -22.90020 | 35029 ft | 499 kts | 22° |
| 2026-05-06 21:18 | 16.88096 | -22.86372 | 35028 ft | 501 kts | 22° |
| 2026-05-06 21:19 | 16.94169 | -22.82686 | 35029 ft | 501 kts | 22° |
| 2026-05-06 21:19 | 17.00146 | -22.79056 | 35020 ft | 498 kts | 22° |
| 2026-05-06 21:20 | 17.06148 | -22.75409 | 35043 ft | 499 kts | 22° |
| 2026-05-06 21:20 | 17.12197 | -22.71730 | 35025 ft | 501 kts | 22° |
| 2026-05-06 21:21 | 17.18176 | -22.68088 | 35027 ft | 497 kts | 22° |
| 2026-05-06 21:21 | 17.24151 | -22.64449 | 35019 ft | 494 kts | 22° |
| 2026-05-06 21:22 | 17.30109 | -22.60819 | 35036 ft | 497 kts | 22° |
| 2026-05-06 21:22 | 17.36063 | -22.57184 | 35032 ft | 495 kts | 22° |
| 2026-05-06 21:23 | 17.42046 | -22.53532 | 35044 ft | 495 kts | 22° |
| 2026-05-06 21:23 | 17.47961 | -22.49917 | 35032 ft | 493 kts | 22° |
| 2026-05-06 21:24 | 17.53902 | -22.46285 | 35043 ft | 494 kts | 23° |
| 2026-05-06 21:24 | 17.59847 | -22.42646 | 35041 ft | 493 kts | 23° |
| 2026-05-06 21:25 | 17.65737 | -22.39038 | 35042 ft | 490 kts | 22° |
| 2026-05-06 21:25 | 17.71647 | -22.35416 | 35038 ft | 489 kts | 23° |
| 2026-05-06 21:26 | 17.77527 | -22.31811 | 35024 ft | 491 kts | 23° |
| 2026-05-06 21:26 | 17.83446 | -22.28177 | 35023 ft | 492 kts | 23° |
| 2026-05-06 21:27 | 17.89327 | -22.24563 | 35027 ft | 491 kts | 23° |
| 2026-05-06 21:27 | 17.95246 | -22.20924 | 35025 ft | 489 kts | 23° |
| 2026-05-06 21:28 | 18.01109 | -22.17315 | 35022 ft | 489 kts | 22° |
| 2026-05-06 21:28 | 18.06995 | -22.13692 | 35026 ft | 488 kts | 23° |
| 2026-05-06 21:29 | 18.12846 | -22.10085 | 35018 ft | 485 kts | 23° |
| 2026-05-06 21:29 | 18.18679 | -22.06488 | 35024 ft | 486 kts | 23° |
| 2026-05-06 21:30 | 18.24523 | -22.02883 | 35031 ft | 486 kts | 24° |
| 2026-05-06 21:30 | 18.30302 | -21.99309 | 35019 ft | 480 kts | 23° |
| 2026-05-06 21:31 | 18.36064 | -21.95750 | 35029 ft | 482 kts | 23° |
| 2026-05-06 21:31 | 18.41876 | -21.92155 | 35027 ft | 484 kts | 23° |
| 2026-05-06 21:32 | 18.47677 | -21.88560 | 35024 ft | 481 kts | 24° |
| 2026-05-06 21:32 | 18.56262 | -21.83240 | 35027 ft | 477 kts | 24° |
| 2026-05-06 21:33 | 18.62024 | -21.79667 | 35040 ft | 480 kts | 24° |
| 2026-05-06 21:33 | 18.67757 | -21.76107 | 35042 ft | 480 kts | 24° |
| 2026-05-06 21:34 | 18.73508 | -21.72532 | 35035 ft | 477 kts | 24° |
| 2026-05-06 21:34 | 18.79249 | -21.68963 | 35028 ft | 477 kts | 24° |
| 2026-05-06 21:35 | 18.84988 | -21.65393 | 35034 ft | 480 kts | 24° |
| 2026-05-06 21:35 | 18.90729 | -21.61813 | 35030 ft | 475 kts | 24° |
| 2026-05-06 21:36 | 18.96394 | -21.58282 | 35034 ft | 474 kts | 25° |
| 2026-05-06 21:36 | 19.02063 | -21.54746 | 35028 ft | 471 kts | 24° |
| 2026-05-06 21:37 | 19.07748 | -21.51198 | 35034 ft | 475 kts | 25° |
| 2026-05-06 21:37 | 19.13408 | -21.47659 | 35032 ft | 470 kts | 25° |
| 2026-05-06 21:38 | 19.19035 | -21.44142 | 35040 ft | 472 kts | 25° |
| 2026-05-06 21:38 | 19.24702 | -21.40593 | 35032 ft | 469 kts | 25° |
| 2026-05-06 21:39 | 19.30331 | -21.37070 | 35041 ft | 472 kts | 25° |
| 2026-05-06 21:39 | 19.35971 | -21.33532 | 35024 ft | 468 kts | 25° |
| 2026-05-06 21:40 | 19.41591 | -21.30006 | 35035 ft | 470 kts | 25° |
| 2026-05-06 21:40 | 19.47201 | -21.26483 | 35030 ft | 468 kts | 25° |
| 2026-05-06 21:41 | 19.52782 | -21.22976 | 35031 ft | 467 kts | 26° |
| 2026-05-06 21:41 | 19.58378 | -21.19457 | 35036 ft | 469 kts | 25° |
| 2026-05-06 21:42 | 19.63973 | -21.15935 | 35037 ft | 466 kts | 26° |
| 2026-05-06 21:42 | 19.69556 | -21.12418 | 35038 ft | 466 kts | 25° |
| 2026-05-06 21:43 | 19.75149 | -21.08893 | 35055 ft | 467 kts | 26° |
| 2026-05-06 21:43 | 19.80725 | -21.05373 | 35053 ft | 463 kts | 26° |
| 2026-05-06 21:44 | 19.86274 | -21.01869 | 35050 ft | 462 kts | 26° |
| 2026-05-06 21:44 | 19.91817 | -20.98366 | 35047 ft | 466 kts | 26° |
| 2026-05-06 21:45 | 19.97382 | -20.94845 | 35053 ft | 464 kts | 26° |
| 2026-05-06 21:45 | 20.02947 | -20.91322 | 35043 ft | 464 kts | 26° |
| 2026-05-06 21:46 | 20.08464 | -20.87826 | 35040 ft | 462 kts | 26° |
| 2026-05-06 21:46 | 20.13997 | -20.84317 | 35046 ft | 462 kts | 26° |
| 2026-05-06 21:47 | 20.19495 | -20.80829 | 35047 ft | 462 kts | 26° |
| 2026-05-06 21:47 | 20.25001 | -20.77330 | 35049 ft | 459 kts | 26° |
| 2026-05-06 21:48 | 20.30495 | -20.73838 | 35035 ft | 460 kts | 26° |
| 2026-05-06 21:48 | 20.35978 | -20.70349 | 35051 ft | 459 kts | 26° |
| 2026-05-06 21:49 | 20.41466 | -20.66847 | 35038 ft | 458 kts | 26° |
| 2026-05-06 21:49 | 20.46921 | -20.63363 | 35050 ft | 457 kts | 26° |
| 2026-05-06 21:50 | 20.52375 | -20.59876 | 35049 ft | 456 kts | 26° |
| 2026-05-06 21:50 | 20.57801 | -20.56405 | 35038 ft | 455 kts | 26° |
| 2026-05-06 21:51 | 20.63222 | -20.52933 | 35027 ft | 453 kts | 26° |
| 2026-05-06 21:51 | 20.68660 | -20.49448 | 35037 ft | 455 kts | 26° |
| 2026-05-06 21:52 | 20.74090 | -20.45965 | 35037 ft | 453 kts | 26° |
| 2026-05-06 21:52 | 20.79464 | -20.42516 | 35043 ft | 451 kts | 26° |
| 2026-05-06 21:53 | 20.84856 | -20.39050 | 35034 ft | 452 kts | 26° |
| 2026-05-06 21:53 | 20.90238 | -20.35590 | 35037 ft | 450 kts | 26° |
| 2026-05-06 21:54 | 20.95601 | -20.32137 | 35030 ft | 450 kts | 26° |
| 2026-05-06 21:54 | 21.01003 | -20.28659 | 35031 ft | 452 kts | 27° |
| 2026-05-06 21:55 | 21.06366 | -20.25202 | 35027 ft | 452 kts | 26° |
| 2026-05-06 21:55 | 21.11772 | -20.21712 | 35032 ft | 451 kts | 26° |
| 2026-05-06 21:56 | 21.17158 | -20.18234 | 35025 ft | 451 kts | 26° |
| 2026-05-06 21:56 | 21.22518 | -20.14769 | 35027 ft | 450 kts | 27° |
| 2026-05-06 21:57 | 21.27864 | -20.11312 | 35031 ft | 449 kts | 27° |
| 2026-05-06 21:57 | 21.33239 | -20.07831 | 35020 ft | 450 kts | 26° |
| 2026-05-06 21:58 | 21.38608 | -20.04353 | 35019 ft | 451 kts | 27° |
| 2026-05-06 21:58 | 21.43972 | -20.00873 | 35028 ft | 449 kts | 27° |
| 2026-05-06 21:59 | 21.49302 | -19.97413 | 35027 ft | 447 kts | 26° |
| 2026-05-06 21:59 | 21.54624 | -19.93955 | 35029 ft | 449 kts | 26° |
| 2026-05-06 22:00 | 21.59955 | -19.90489 | 35024 ft | 447 kts | 26° |
| 2026-05-06 22:00 | 21.65270 | -19.87029 | 35022 ft | 448 kts | 26° |
| 2026-05-06 22:01 | 21.70613 | -19.83549 | 35015 ft | 447 kts | 26° |
| 2026-05-06 22:01 | 21.75928 | -19.80084 | 35032 ft | 449 kts | 26° |
| 2026-05-06 22:02 | 21.81268 | -19.76598 | 35024 ft | 446 kts | 26° |
| 2026-05-06 22:02 | 21.86551 | -19.73148 | 35026 ft | 446 kts | 26° |
| 2026-05-06 22:03 | 21.91887 | -19.69660 | 35033 ft | 448 kts | 26° |
| 2026-05-06 22:03 | 21.97205 | -19.66179 | 35031 ft | 445 kts | 26° |
| 2026-05-06 22:04 | 22.02483 | -19.62725 | 35025 ft | 447 kts | 26° |
| 2026-05-06 22:04 | 22.07828 | -19.59221 | 35020 ft | 449 kts | 26° |
| 2026-05-06 22:05 | 22.13165 | -19.55718 | 35030 ft | 447 kts | 26° |
| 2026-05-06 22:05 | 22.18443 | -19.52252 | 35033 ft | 445 kts | 26° |
| 2026-05-06 22:06 | 22.23746 | -19.48768 | 35030 ft | 446 kts | 26° |
| 2026-05-06 22:06 | 22.29034 | -19.45287 | 35022 ft | 444 kts | 26° |
| 2026-05-06 22:07 | 22.34300 | -19.41819 | 35034 ft | 444 kts | 26° |
| 2026-05-06 22:07 | 22.39598 | -19.38330 | 35030 ft | 447 kts | 26° |
| 2026-05-06 22:08 | 22.44894 | -19.34835 | 35028 ft | 445 kts | 27° |
| 2026-05-06 22:08 | 22.50183 | -19.31343 | 35023 ft | 444 kts | 27° |
| 2026-05-06 22:09 | 22.55448 | -19.27862 | 35018 ft | 443 kts | 26° |
| 2026-05-06 22:09 | 22.60714 | -19.24380 | 35024 ft | 444 kts | 26° |
| 2026-05-06 22:10 | 22.65986 | -19.20890 | 35021 ft | 445 kts | 26° |
| 2026-05-06 22:10 | 22.71244 | -19.17406 | 35019 ft | 444 kts | 26° |
| 2026-05-06 22:11 | 22.76530 | -19.13900 | 35021 ft | 443 kts | 26° |
| 2026-05-06 22:11 | 22.81777 | -19.10416 | 35027 ft | 445 kts | 27° |
| 2026-05-06 22:12 | 22.87054 | -19.06908 | 35020 ft | 441 kts | 26° |
| 2026-05-06 22:12 | 22.92261 | -19.03447 | 35026 ft | 443 kts | 26° |
| 2026-05-06 22:13 | 22.97542 | -18.99931 | 35026 ft | 445 kts | 27° |
| 2026-05-06 22:13 | 23.02787 | -18.96434 | 35015 ft | 440 kts | 27° |
| 2026-05-06 22:14 | 23.08020 | -18.92946 | 35026 ft | 443 kts | 27° |
| 2026-05-06 22:14 | 23.13272 | -18.89440 | 35023 ft | 443 kts | 26° |
| 2026-05-06 22:15 | 23.18502 | -18.85944 | 35023 ft | 441 kts | 26° |
| 2026-05-06 22:15 | 23.23767 | -18.82425 | 35025 ft | 444 kts | 26° |
| 2026-05-06 22:16 | 23.29017 | -18.78909 | 35023 ft | 442 kts | 26° |
| 2026-05-06 22:16 | 23.34258 | -18.75398 | 35020 ft | 444 kts | 26° |
| 2026-05-06 22:17 | 23.39538 | -18.71855 | 35022 ft | 443 kts | 26° |
| 2026-05-06 22:17 | 23.44759 | -18.68350 | 35017 ft | 442 kts | 26° |
| 2026-05-06 22:18 | 23.49995 | -18.64832 | 35020 ft | 442 kts | 26° |
| 2026-05-06 22:18 | 23.55237 | -18.61307 | 35027 ft | 444 kts | 26° |
| 2026-05-06 22:19 | 23.60482 | -18.57776 | 35041 ft | 444 kts | 26° |
| 2026-05-06 22:19 | 23.65739 | -18.54232 | 35030 ft | 440 kts | 26° |
| 2026-05-06 22:20 | 23.70949 | -18.50719 | 35031 ft | 443 kts | 26° |
| 2026-05-06 22:20 | 23.76212 | -18.47166 | 35032 ft | 443 kts | 26° |
| 2026-05-06 22:21 | 23.81434 | -18.43637 | 35031 ft | 442 kts | 26° |
| 2026-05-06 22:21 | 23.86662 | -18.40099 | 35030 ft | 439 kts | 26° |
| 2026-05-06 22:22 | 23.91849 | -18.36587 | 35039 ft | 439 kts | 26° |
| 2026-05-06 22:22 | 23.97050 | -18.33062 | 35028 ft | 439 kts | 26° |
| 2026-05-06 22:23 | 24.02245 | -18.29538 | 35024 ft | 439 kts | 26° |
| 2026-05-06 22:23 | 24.07417 | -18.26027 | 35022 ft | 439 kts | 26° |
| 2026-05-06 22:24 | 24.12636 | -18.22478 | 35036 ft | 441 kts | 26° |
| 2026-05-06 22:24 | 24.17807 | -18.18959 | 35031 ft | 438 kts | 26° |
| 2026-05-06 22:25 | 24.22975 | -18.15441 | 35032 ft | 437 kts | 26° |
| 2026-05-06 22:25 | 24.28154 | -18.11910 | 35028 ft | 439 kts | 26° |
| 2026-05-06 22:26 | 24.33367 | -18.08353 | 35016 ft | 440 kts | 26° |
| 2026-05-06 22:26 | 24.38530 | -18.04827 | 35022 ft | 439 kts | 26° |
| 2026-05-06 22:27 | 24.43698 | -18.01292 | 35019 ft | 437 kts | 26° |
| 2026-05-06 22:27 | 24.48865 | -17.97757 | 35029 ft | 438 kts | 26° |
| 2026-05-06 22:28 | 24.54040 | -17.94211 | 35029 ft | 435 kts | 26° |
| 2026-05-06 22:28 | 24.59154 | -17.90705 | 35030 ft | 437 kts | 26° |
| 2026-05-06 22:29 | 24.64360 | -17.87133 | 35026 ft | 438 kts | 26° |
| 2026-05-06 22:29 | 24.69514 | -17.83590 | 35025 ft | 436 kts | 26° |
| 2026-05-06 22:30 | 24.74657 | -17.80053 | 35026 ft | 436 kts | 26° |
| 2026-05-06 22:30 | 24.79807 | -17.76508 | 35027 ft | 438 kts | 26° |
| 2026-05-06 22:31 | 24.84954 | -17.72961 | 35033 ft | 437 kts | 26° |
| 2026-05-06 22:31 | 24.90095 | -17.69415 | 35030 ft | 436 kts | 26° |
| 2026-05-06 22:32 | 24.95250 | -17.65855 | 35035 ft | 436 kts | 26° |
| 2026-05-06 22:32 | 25.00406 | -17.62292 | 35030 ft | 438 kts | 26° |
| 2026-05-06 22:33 | 25.05540 | -17.58734 | 35023 ft | 436 kts | 26° |
| 2026-05-06 22:33 | 25.10651 | -17.55191 | 35023 ft | 434 kts | 26° |
| 2026-05-06 22:34 | 25.15801 | -17.51617 | 35032 ft | 437 kts | 27° |
| 2026-05-06 22:34 | 25.20933 | -17.48052 | 35029 ft | 437 kts | 26° |
| 2026-05-06 22:35 | 25.26068 | -17.44479 | 35032 ft | 435 kts | 26° |
| 2026-05-06 22:35 | 25.31190 | -17.40914 | 35032 ft | 437 kts | 26° |
| 2026-05-06 22:36 | 25.36341 | -17.37324 | 35029 ft | 437 kts | 26° |
| 2026-05-06 22:36 | 25.41465 | -17.33748 | 35021 ft | 435 kts | 27° |
| 2026-05-06 22:37 | 25.46607 | -17.30159 | 35021 ft | 438 kts | 27° |
| 2026-05-06 22:37 | 25.51733 | -17.26575 | 35021 ft | 436 kts | 27° |
| 2026-05-06 22:38 | 25.56872 | -17.22979 | 35021 ft | 436 kts | 27° |
| 2026-05-06 22:38 | 25.61998 | -17.19389 | 35015 ft | 437 kts | 27° |
| 2026-05-06 22:39 | 25.67124 | -17.15794 | 35020 ft | 435 kts | 27° |
| 2026-05-06 22:39 | 25.72263 | -17.12188 | 35024 ft | 437 kts | 27° |
| 2026-05-06 22:40 | 25.77393 | -17.08583 | 35056 ft | 438 kts | 27° |
| 2026-05-06 22:40 | 25.79978 | -17.06764 | 35219 ft | 436 kts | 27° |
| 2026-05-06 22:40 | 25.82527 | -17.04971 | 35372 ft | 437 kts | 27° |
| 2026-05-06 22:41 | 25.87688 | -17.01337 | 35684 ft | 440 kts | 27° |
| 2026-05-06 22:41 | 25.90258 | -16.99526 | 35837 ft | 440 kts | 27° |
| 2026-05-06 22:41 | 25.92857 | -16.97693 | 35994 ft | 440 kts | 27° |
| 2026-05-06 22:42 | 25.95427 | -16.95880 | 36147 ft | 440 kts | 27° |
| 2026-05-06 22:42 | 25.98037 | -16.94038 | 36309 ft | 441 kts | 27° |
| 2026-05-06 22:42 | 26.00627 | -16.92210 | 36462 ft | 441 kts | 27° |
| 2026-05-06 22:42 | 26.03204 | -16.90390 | 36627 ft | 442 kts | 27° |
| 2026-05-06 22:43 | 26.05808 | -16.88548 | 36777 ft | 443 kts | 27° |
| 2026-05-06 22:43 | 26.08422 | -16.86699 | 36941 ft | 443 kts | 27° |
| 2026-05-06 22:43 | 26.11012 | -16.84867 | 37032 ft | 446 kts | 27° |
| 2026-05-06 22:44 | 26.16266 | -16.81145 | 37026 ft | 445 kts | 27° |
| 2026-05-06 22:44 | 26.21448 | -16.77473 | 37024 ft | 441 kts | 27° |
| 2026-05-06 22:45 | 26.26666 | -16.73782 | 37024 ft | 443 kts | 27° |
| 2026-05-06 22:45 | 26.31852 | -16.70107 | 37027 ft | 441 kts | 27° |
| 2026-05-06 22:46 | 26.37038 | -16.66429 | 37031 ft | 443 kts | 27° |
| 2026-05-06 22:46 | 26.42212 | -16.62756 | 37028 ft | 441 kts | 27° |
| 2026-05-06 22:47 | 26.47400 | -16.59069 | 37032 ft | 442 kts | 27° |
| 2026-05-06 22:47 | 26.52588 | -16.55377 | 37032 ft | 441 kts | 27° |
| 2026-05-06 22:48 | 26.57729 | -16.51716 | 37034 ft | 442 kts | 27° |
| 2026-05-06 22:48 | 26.62925 | -16.48011 | 37024 ft | 441 kts | 27° |
| 2026-05-06 22:49 | 26.68070 | -16.44338 | 37028 ft | 441 kts | 27° |
| 2026-05-06 22:49 | 26.73253 | -16.40634 | 37027 ft | 440 kts | 27° |
| 2026-05-06 22:50 | 26.78398 | -16.36953 | 37023 ft | 440 kts | 27° |
| 2026-05-06 22:50 | 26.83583 | -16.33241 | 37013 ft | 442 kts | 27° |
| 2026-05-06 22:51 | 26.88744 | -16.29540 | 37019 ft | 442 kts | 27° |
| 2026-05-06 22:51 | 26.93918 | -16.25820 | 37014 ft | 443 kts | 27° |
| 2026-05-06 22:52 | 26.99072 | -16.22109 | 37025 ft | 440 kts | 27° |
| 2026-05-06 22:52 | 27.04216 | -16.18401 | 37017 ft | 440 kts | 27° |
| 2026-05-06 22:53 | 27.09395 | -16.14666 | 37018 ft | 444 kts | 27° |
| 2026-05-06 22:53 | 27.14604 | -16.10900 | 37024 ft | 441 kts | 27° |
| 2026-05-06 22:54 | 27.19720 | -16.07202 | 37020 ft | 439 kts | 27° |
| 2026-05-06 22:54 | 27.24890 | -16.03458 | 37021 ft | 440 kts | 27° |
| 2026-05-06 22:55 | 27.30036 | -15.99729 | 37025 ft | 441 kts | 27° |
| 2026-05-06 22:55 | 27.35191 | -15.95988 | 37026 ft | 441 kts | 27° |
| 2026-05-06 22:56 | 27.40321 | -15.92261 | 37026 ft | 440 kts | 28° |
| 2026-05-06 22:56 | 27.45466 | -15.88519 | 37039 ft | 440 kts | 27° |
| 2026-05-06 22:57 | 27.50580 | -15.84796 | 37030 ft | 439 kts | 28° |
| 2026-05-06 22:57 | 27.55726 | -15.81044 | 37039 ft | 440 kts | 27° |
| 2026-05-06 22:58 | 27.60848 | -15.77308 | 37041 ft | 440 kts | 27° |
| 2026-05-06 22:58 | 27.66010 | -15.73537 | 37039 ft | 439 kts | 27° |
| 2026-05-06 22:59 | 27.71106 | -15.69808 | 37035 ft | 438 kts | 27° |
| 2026-05-06 22:59 | 27.76237 | -15.66053 | 37037 ft | 438 kts | 27° |
| 2026-05-06 23:00 | 27.81364 | -15.62294 | 37054 ft | 440 kts | 27° |
| 2026-05-06 23:00 | 27.86480 | -15.58540 | 37059 ft | 438 kts | 27° |
| 2026-05-06 23:01 | 27.91599 | -15.54779 | 37061 ft | 438 kts | 28° |
| 2026-05-06 23:01 | 27.96701 | -15.51027 | 37070 ft | 439 kts | 28° |
| 2026-05-06 23:02 | 28.01820 | -15.47258 | 37070 ft | 437 kts | 27° |
| 2026-05-06 23:02 | 28.06902 | -15.43511 | 37062 ft | 436 kts | 27° |
| 2026-05-06 23:03 | 28.11994 | -15.39738 | 37072 ft | 438 kts | 28° |
| 2026-05-06 23:03 | 28.17102 | -15.35943 | 37061 ft | 435 kts | 28° |
| 2026-05-06 23:04 | 28.22140 | -15.32197 | 37050 ft | 435 kts | 28° |
| 2026-05-06 23:04 | 28.27209 | -15.28423 | 37051 ft | 436 kts | 28° |
| 2026-05-06 23:05 | 28.32277 | -15.24647 | 37039 ft | 435 kts | 28° |
| 2026-05-06 23:05 | 28.37321 | -15.20883 | 37048 ft | 434 kts | 28° |
| 2026-05-06 23:06 | 28.42384 | -15.17102 | 37051 ft | 436 kts | 28° |
| 2026-05-06 23:06 | 28.47423 | -15.13333 | 37050 ft | 435 kts | 28° |
| 2026-05-06 23:07 | 28.52475 | -15.09550 | 37053 ft | 432 kts | 28° |
| 2026-05-06 23:07 | 28.57477 | -15.05802 | 37058 ft | 434 kts | 28° |
| 2026-05-06 23:08 | 28.62511 | -15.02023 | 37049 ft | 432 kts | 28° |
| 2026-05-06 23:08 | 28.67544 | -14.98242 | 37058 ft | 433 kts | 28° |
| 2026-05-06 23:09 | 28.72545 | -14.94478 | 37044 ft | 431 kts | 28° |
| 2026-05-06 23:09 | 28.77539 | -14.90719 | 37056 ft | 431 kts | 28° |
| 2026-05-06 23:10 | 28.82526 | -14.86958 | 37051 ft | 431 kts | 28° |
| 2026-05-06 23:10 | 28.87566 | -14.83154 | 37043 ft | 433 kts | 28° |
| 2026-05-06 23:11 | 28.92557 | -14.79382 | 37041 ft | 433 kts | 28° |
| 2026-05-06 23:11 | 28.97589 | -14.75573 | 37043 ft | 431 kts | 28° |
| 2026-05-06 23:12 | 29.02542 | -14.71822 | 37038 ft | 429 kts | 28° |
| 2026-05-06 23:12 | 29.07547 | -14.68028 | 37039 ft | 432 kts | 28° |
| 2026-05-06 23:13 | 29.12558 | -14.64222 | 37053 ft | 433 kts | 28° |
| 2026-05-06 23:13 | 29.17563 | -14.60416 | 37048 ft | 432 kts | 28° |
| 2026-05-06 23:14 | 29.22582 | -14.56597 | 37049 ft | 432 kts | 28° |
| 2026-05-06 23:14 | 29.27579 | -14.52790 | 37052 ft | 435 kts | 28° |
| 2026-05-06 23:15 | 29.32637 | -14.48929 | 37051 ft | 434 kts | 28° |
| 2026-05-06 23:15 | 29.37676 | -14.45080 | 37050 ft | 434 kts | 28° |
| 2026-05-06 23:16 | 29.42687 | -14.41247 | 37050 ft | 436 kts | 28° |
| 2026-05-06 23:16 | 29.47733 | -14.37384 | 37048 ft | 435 kts | 28° |
| 2026-05-06 23:17 | 29.52765 | -14.33526 | 37043 ft | 437 kts | 28° |
| 2026-05-06 23:17 | 29.57839 | -14.29631 | 37043 ft | 438 kts | 29° |
| 2026-05-06 23:18 | 29.62879 | -14.25759 | 37045 ft | 437 kts | 29° |
| 2026-05-06 23:18 | 29.67936 | -14.21867 | 37048 ft | 439 kts | 29° |
| 2026-05-06 23:19 | 29.73020 | -14.17949 | 37051 ft | 440 kts | 28° |
| 2026-05-06 23:19 | 29.78092 | -14.14036 | 37051 ft | 438 kts | 29° |
| 2026-05-06 23:20 | 29.83161 | -14.10122 | 37058 ft | 440 kts | 29° |
| 2026-05-06 23:20 | 29.88256 | -14.06182 | 37056 ft | 442 kts | 29° |
| 2026-05-06 23:21 | 29.93344 | -14.02242 | 37053 ft | 441 kts | 29° |
| 2026-05-06 23:21 | 29.98423 | -13.98306 | 37057 ft | 443 kts | 29° |
| 2026-05-06 23:22 | 30.03565 | -13.94313 | 37055 ft | 443 kts | 29° |
| 2026-05-06 23:22 | 30.08656 | -13.90356 | 37054 ft | 440 kts | 29° |
| 2026-05-06 23:23 | 30.13714 | -13.86420 | 37061 ft | 439 kts | 29° |
| 2026-05-06 23:23 | 30.18762 | -13.82487 | 37060 ft | 437 kts | 29° |
| 2026-05-06 23:24 | 30.23793 | -13.78562 | 37059 ft | 437 kts | 29° |
| 2026-05-06 23:24 | 30.28824 | -13.74633 | 37057 ft | 438 kts | 29° |
| 2026-05-06 23:25 | 30.33878 | -13.70679 | 37059 ft | 437 kts | 29° |
| 2026-05-06 23:25 | 30.38901 | -13.66745 | 37065 ft | 436 kts | 29° |
| 2026-05-06 23:26 | 30.43934 | -13.62800 | 37059 ft | 437 kts | 29° |
| 2026-05-06 23:26 | 30.48983 | -13.58836 | 37055 ft | 436 kts | 29° |
| 2026-05-06 23:27 | 30.53967 | -13.54894 | 37059 ft | 436 kts | 29° |
| 2026-05-06 23:27 | 30.58978 | -13.50907 | 37055 ft | 435 kts | 29° |
| 2026-05-06 23:28 | 30.63960 | -13.46940 | 37055 ft | 435 kts | 30° |
| 2026-05-06 23:28 | 30.68962 | -13.42952 | 37061 ft | 435 kts | 29° |
| 2026-05-06 23:29 | 30.73931 | -13.38985 | 37061 ft | 436 kts | 29° |
| 2026-05-06 23:29 | 30.78912 | -13.35002 | 37060 ft | 434 kts | 30° |
| 2026-05-06 23:30 | 30.83908 | -13.31004 | 37057 ft | 437 kts | 30° |
| 2026-05-06 23:30 | 30.88933 | -13.26976 | 37055 ft | 436 kts | 30° |
| 2026-05-06 23:31 | 30.93911 | -13.23001 | 37057 ft | 435 kts | 30° |
| 2026-05-06 23:31 | 30.98921 | -13.19023 | 37052 ft | 436 kts | 30° |
| 2026-05-06 23:32 | 31.03934 | -13.15037 | 37056 ft | 436 kts | 30° |
| 2026-05-06 23:32 | 31.08973 | -13.11025 | 37058 ft | 437 kts | 30° |
| 2026-05-06 23:33 | 31.13955 | -13.07052 | 37062 ft | 436 kts | 30° |
| 2026-05-06 23:33 | 31.18964 | -13.03053 | 37065 ft | 435 kts | 30° |
| 2026-05-06 23:34 | 31.23973 | -12.99049 | 37064 ft | 434 kts | 30° |
| 2026-05-06 23:34 | 31.28950 | -12.95065 | 37063 ft | 435 kts | 30° |
| 2026-05-06 23:35 | 31.33917 | -12.91084 | 37058 ft | 435 kts | 30° |
| 2026-05-06 23:35 | 31.38900 | -12.87085 | 37060 ft | 435 kts | 30° |
| 2026-05-06 23:36 | 31.43873 | -12.83088 | 37060 ft | 434 kts | 30° |
| 2026-05-06 23:36 | 31.48866 | -12.79070 | 37058 ft | 433 kts | 29° |
| 2026-05-06 23:37 | 31.53806 | -12.75090 | 37057 ft | 432 kts | 30° |
| 2026-05-06 23:37 | 31.58752 | -12.71100 | 37061 ft | 433 kts | 30° |
| 2026-05-06 23:38 | 31.63716 | -12.67090 | 37055 ft | 432 kts | 29° |
| 2026-05-06 23:38 | 31.68662 | -12.63089 | 37057 ft | 434 kts | 30° |
| 2026-05-06 23:39 | 31.73609 | -12.59082 | 37049 ft | 431 kts | 30° |
| 2026-05-06 23:39 | 31.78539 | -12.55084 | 37055 ft | 432 kts | 30° |
| 2026-05-06 23:40 | 31.83479 | -12.51071 | 37051 ft | 431 kts | 30° |
| 2026-05-06 23:40 | 31.88399 | -12.47072 | 37050 ft | 432 kts | 30° |
| 2026-05-06 23:41 | 31.93346 | -12.43042 | 37048 ft | 430 kts | 30° |
| 2026-05-06 23:41 | 31.98225 | -12.39066 | 37050 ft | 430 kts | 30° |
| 2026-05-06 23:42 | 32.03179 | -12.35039 | 37047 ft | 430 kts | 29° |
| 2026-05-06 23:42 | 32.08073 | -12.31054 | 37035 ft | 429 kts | 30° |
| 2026-05-06 23:43 | 32.12980 | -12.27054 | 37048 ft | 430 kts | 30° |
| 2026-05-06 23:43 | 32.17893 | -12.23042 | 37045 ft | 427 kts | 30° |
| 2026-05-06 23:44 | 32.22771 | -12.19055 | 37045 ft | 431 kts | 30° |
| 2026-05-06 23:44 | 32.27692 | -12.15026 | 37042 ft | 428 kts | 30° |
| 2026-05-06 23:45 | 32.32558 | -12.11037 | 37048 ft | 429 kts | 30° |
| 2026-05-06 23:45 | 32.37461 | -12.07013 | 37041 ft | 429 kts | 30° |
| 2026-05-06 23:46 | 32.42345 | -12.02999 | 37042 ft | 428 kts | 30° |
| 2026-05-06 23:46 | 32.47229 | -11.98979 | 37036 ft | 427 kts | 30° |
| 2026-05-06 23:47 | 32.52119 | -11.94949 | 37041 ft | 428 kts | 30° |
| 2026-05-06 23:47 | 32.57008 | -11.90915 | 37038 ft | 428 kts | 30° |
| 2026-05-06 23:48 | 32.61872 | -11.86894 | 37038 ft | 428 kts | 30° |
| 2026-05-06 23:48 | 32.66759 | -11.82851 | 37035 ft | 428 kts | 30° |
| 2026-05-06 23:49 | 32.71645 | -11.78802 | 37038 ft | 428 kts | 30° |
| 2026-05-06 23:49 | 32.76498 | -11.74776 | 37032 ft | 429 kts | 30° |
| 2026-05-06 23:50 | 32.81373 | -11.70725 | 37034 ft | 427 kts | 30° |
| 2026-05-06 23:50 | 32.88711 | -11.64617 | 37032 ft | 428 kts | 30° |
| 2026-05-06 23:51 | 32.93569 | -11.60567 | 37032 ft | 430 kts | 30° |
| 2026-05-06 23:51 | 32.98450 | -11.56492 | 37023 ft | 427 kts | 30° |
| 2026-05-06 23:52 | 33.03330 | -11.52413 | 37029 ft | 427 kts | 30° |
| 2026-05-06 23:52 | 33.08207 | -11.48330 | 37033 ft | 430 kts | 30° |
| 2026-05-06 23:53 | 33.13081 | -11.44244 | 37044 ft | 431 kts | 30° |
| 2026-05-06 23:53 | 33.17963 | -11.40142 | 37033 ft | 430 kts | 30° |
| 2026-05-06 23:54 | 33.22827 | -11.36023 | 37034 ft | 430 kts | 30° |
| 2026-05-06 23:54 | 33.27726 | -11.31869 | 37027 ft | 431 kts | 30° |
| 2026-05-06 23:55 | 33.32588 | -11.27740 | 37020 ft | 432 kts | 30° |
| 2026-05-06 23:55 | 33.37478 | -11.23583 | 37025 ft | 432 kts | 30° |
| 2026-05-06 23:56 | 33.42388 | -11.19401 | 36794 ft | 433 kts | 30° |
| 2026-05-06 23:56 | 33.44820 | -11.17327 | 37203 ft | 432 kts | 30° |
| 2026-05-06 23:56 | 33.47299 | -11.15216 | 36996 ft | 438 kts | 30° |
| 2026-05-06 23:57 | 33.49755 | -11.13115 | 36879 ft | 430 kts | 30° |
| 2026-05-06 23:57 | 33.52182 | -11.11041 | 37016 ft | 431 kts | 31° |
| 2026-05-06 23:57 | 33.57103 | -11.06837 | 37016 ft | 440 kts | 31° |
| 2026-05-06 23:58 | 33.62093 | -11.02561 | 37011 ft | 438 kts | 31° |
| 2026-05-06 23:58 | 33.67009 | -10.98343 | 37015 ft | 436 kts | 30° |
| 2026-05-06 23:59 | 33.71968 | -10.94086 | 37014 ft | 439 kts | 30° |
| 2026-05-06 23:59 | 33.76917 | -10.89829 | 37013 ft | 439 kts | 30° |
| 2026-05-07 00:00 | 33.81891 | -10.85544 | 37015 ft | 439 kts | 31° |
| 2026-05-07 00:00 | 33.86853 | -10.81265 | 37012 ft | 440 kts | 31° |
| 2026-05-07 00:01 | 33.91785 | -10.77002 | 37015 ft | 439 kts | 31° |
| 2026-05-07 00:01 | 33.96748 | -10.72708 | 37019 ft | 440 kts | 30° |
| 2026-05-07 00:02 | 34.01721 | -10.68400 | 37015 ft | 439 kts | 30° |
| 2026-05-07 00:02 | 34.06654 | -10.64120 | 37020 ft | 441 kts | 30° |
| 2026-05-07 00:03 | 34.11645 | -10.59783 | 37038 ft | 443 kts | 30° |
| 2026-05-07 00:03 | 34.16654 | -10.55423 | 37045 ft | 442 kts | 30° |
| 2026-05-07 00:04 | 34.21620 | -10.51094 | 37026 ft | 440 kts | 30° |
| 2026-05-07 00:04 | 34.26607 | -10.46743 | 37044 ft | 446 kts | 30° |
| 2026-05-07 00:05 | 34.31614 | -10.42364 | 37026 ft | 442 kts | 30° |
| 2026-05-07 00:05 | 34.36563 | -10.38031 | 37034 ft | 443 kts | 30° |
| 2026-05-07 00:06 | 34.41588 | -10.33627 | 37022 ft | 445 kts | 31° |
| 2026-05-07 00:06 | 34.46581 | -10.29241 | 37025 ft | 443 kts | 31° |
| 2026-05-07 00:07 | 34.51583 | -10.24843 | 37007 ft | 443 kts | 31° |
| 2026-05-07 00:07 | 34.56554 | -10.20464 | 37005 ft | 445 kts | 31° |
| 2026-05-07 00:08 | 34.61591 | -10.16019 | 37000 ft | 446 kts | 31° |
| 2026-05-07 00:08 | 34.66596 | -10.11624 | 37002 ft | 444 kts | 31° |
| 2026-05-07 00:09 | 34.71586 | -10.07237 | 36990 ft | 444 kts | 31° |
| 2026-05-07 00:09 | 34.76610 | -10.02815 | 36990 ft | 449 kts | 31° |
| 2026-05-07 00:10 | 34.81647 | -9.98372 | 36991 ft | 449 kts | 31° |
| 2026-05-07 00:10 | 34.86674 | -9.93932 | 36995 ft | 446 kts | 31° |
| 2026-05-07 00:11 | 34.91725 | -9.89464 | 36996 ft | 449 kts | 31° |
| 2026-05-07 00:11 | 34.96782 | -9.84983 | 36988 ft | 448 kts | 31° |
| 2026-05-07 00:12 | 35.01824 | -9.80509 | 36996 ft | 450 kts | 31° |
| 2026-05-07 00:12 | 35.06888 | -9.76009 | 36987 ft | 451 kts | 31° |
| 2026-05-07 00:13 | 35.11945 | -9.71505 | 36992 ft | 451 kts | 31° |
| 2026-05-07 00:13 | 35.17035 | -9.66969 | 36986 ft | 452 kts | 31° |
| 2026-05-07 00:14 | 35.22084 | -9.62460 | 36989 ft | 453 kts | 31° |
| 2026-05-07 00:14 | 35.27181 | -9.57900 | 36988 ft | 453 kts | 31° |
| 2026-05-07 00:15 | 35.32262 | -9.53349 | 36991 ft | 454 kts | 31° |
| 2026-05-07 00:15 | 35.37366 | -9.48771 | 36981 ft | 455 kts | 31° |
| 2026-05-07 00:16 | 35.42468 | -9.44185 | 36984 ft | 453 kts | 31° |
| 2026-05-07 00:16 | 35.47559 | -9.39603 | 36993 ft | 456 kts | 31° |
| 2026-05-07 00:17 | 35.52643 | -9.35018 | 36990 ft | 456 kts | 31° |
| 2026-05-07 00:17 | 35.57750 | -9.30408 | 36979 ft | 456 kts | 32° |
| 2026-05-07 00:18 | 35.62887 | -9.25762 | 36989 ft | 459 kts | 32° |
| 2026-05-07 00:18 | 35.68003 | -9.21126 | 36979 ft | 459 kts | 32° |
| 2026-05-07 00:19 | 35.73131 | -9.16473 | 36975 ft | 459 kts | 32° |
| 2026-05-07 00:19 | 35.78250 | -9.11819 | 36970 ft | 460 kts | 31° |
| 2026-05-07 00:20 | 35.83409 | -9.07123 | 36973 ft | 463 kts | 32° |
| 2026-05-07 00:20 | 35.88579 | -9.02409 | 36975 ft | 463 kts | 32° |
| 2026-05-07 00:21 | 35.93750 | -8.97685 | 36978 ft | 463 kts | 32° |
| 2026-05-07 00:21 | 35.98502 | -8.92262 | 36990 ft | 471 kts | 45° |
| 2026-05-07 00:22 | 36.02821 | -8.86169 | 36970 ft | 472 kts | 45° |
| 2026-05-07 00:22 | 36.07108 | -8.80047 | 36972 ft | 472 kts | 45° |
| 2026-05-07 00:23 | 36.11380 | -8.73911 | 36968 ft | 474 kts | 45° |
| 2026-05-07 00:23 | 36.15673 | -8.67728 | 36965 ft | 474 kts | 46° |
| 2026-05-07 00:24 | 36.19957 | -8.61546 | 36964 ft | 474 kts | 46° |
| 2026-05-07 00:24 | 36.24239 | -8.55357 | 36954 ft | 475 kts | 46° |
| 2026-05-07 00:25 | 36.28528 | -8.49142 | 36954 ft | 474 kts | 46° |
| 2026-05-07 00:25 | 36.32798 | -8.42947 | 36942 ft | 475 kts | 46° |
| 2026-05-07 00:26 | 36.37095 | -8.36701 | 36942 ft | 477 kts | 46° |
| 2026-05-07 00:26 | 36.41382 | -8.30456 | 36933 ft | 476 kts | 47° |
| 2026-05-07 00:27 | 36.45692 | -8.24168 | 36936 ft | 477 kts | 47° |
| 2026-05-07 00:27 | 36.49964 | -8.17922 | 36934 ft | 476 kts | 47° |
| 2026-05-07 00:28 | 36.54264 | -8.11621 | 36927 ft | 476 kts | 47° |
| 2026-05-07 00:28 | 36.58520 | -8.05373 | 36926 ft | 475 kts | 48° |
| 2026-05-07 00:29 | 36.62790 | -7.99092 | 36930 ft | 475 kts | 48° |
| 2026-05-07 00:30 | 36.71311 | -7.86521 | 36920 ft | 476 kts | 48° |
| 2026-05-07 00:30 | 36.75560 | -7.80236 | 36927 ft | 476 kts | 48° |
| 2026-05-07 00:31 | 36.79820 | -7.73921 | 36924 ft | 477 kts | 48° |
| 2026-05-07 00:31 | 36.84072 | -7.67609 | 36925 ft | 478 kts | 48° |
| 2026-05-07 00:32 | 36.88347 | -7.61248 | 36925 ft | 478 kts | 48° |
| 2026-05-07 00:32 | 36.92605 | -7.54901 | 36928 ft | 478 kts | 48° |
| 2026-05-07 00:33 | 36.96876 | -7.48522 | 36936 ft | 477 kts | 48° |
| 2026-05-07 00:33 | 37.01124 | -7.42166 | 36935 ft | 478 kts | 48° |
| 2026-05-07 00:34 | 37.05382 | -7.35808 | 36933 ft | 480 kts | 48° |
| 2026-05-07 00:34 | 37.09692 | -7.29406 | 36920 ft | 479 kts | 49° |
| 2026-05-07 00:35 | 37.13962 | -7.23051 | 36922 ft | 479 kts | 49° |
| 2026-05-07 00:35 | 37.18245 | -7.16662 | 36920 ft | 480 kts | 49° |
| 2026-05-07 00:36 | 37.22534 | -7.10253 | 36919 ft | 480 kts | 49° |
| 2026-05-07 00:36 | 37.26821 | -7.03833 | 36909 ft | 481 kts | 49° |
| 2026-05-07 00:37 | 37.31097 | -6.97419 | 36906 ft | 481 kts | 49° |
| 2026-05-07 00:37 | 37.35374 | -6.90990 | 36913 ft | 480 kts | 49° |
| 2026-05-07 00:38 | 37.39661 | -6.84533 | 36910 ft | 481 kts | 49° |
| 2026-05-07 00:38 | 37.43943 | -6.78070 | 36907 ft | 481 kts | 49° |
| 2026-05-07 00:39 | 37.48199 | -6.71635 | 36908 ft | 482 kts | 49° |
| 2026-05-07 00:39 | 37.52490 | -6.65134 | 36908 ft | 482 kts | 49° |
| 2026-05-07 00:40 | 37.56759 | -6.58654 | 36907 ft | 482 kts | 49° |
| 2026-05-07 00:40 | 37.61033 | -6.52152 | 36907 ft | 483 kts | 49° |
| 2026-05-07 00:41 | 37.65280 | -6.45679 | 36905 ft | 482 kts | 50° |
| 2026-05-07 00:41 | 37.69558 | -6.39145 | 36910 ft | 483 kts | 50° |
| 2026-05-07 00:42 | 37.73864 | -6.32558 | 36898 ft | 484 kts | 50° |
| 2026-05-07 00:42 | 37.78135 | -6.26008 | 36900 ft | 482 kts | 50° |
| 2026-05-07 00:43 | 37.82373 | -6.19498 | 36907 ft | 484 kts | 50° |
| 2026-05-07 00:43 | 37.86679 | -6.12869 | 36904 ft | 485 kts | 50° |
| 2026-05-07 00:44 | 37.90935 | -6.06304 | 36919 ft | 485 kts | 50° |
| 2026-05-07 00:44 | 37.95494 | -6.00024 | 36924 ft | 483 kts | 38° |
| 2026-05-07 00:45 | 38.01025 | -5.95252 | 36919 ft | 482 kts | 31° |
| 2026-05-07 00:45 | 38.06669 | -5.90680 | 36917 ft | 481 kts | 30° |
| 2026-05-07 00:46 | 38.12283 | -5.86160 | 36916 ft | 480 kts | 31° |
| 2026-05-07 00:46 | 38.17948 | -5.81598 | 36918 ft | 481 kts | 31° |
| 2026-05-07 00:47 | 38.23600 | -5.77040 | 36918 ft | 482 kts | 31° |
| 2026-05-07 00:47 | 38.29234 | -5.72488 | 36921 ft | 481 kts | 31° |
| 2026-05-07 00:48 | 38.34918 | -5.67887 | 36922 ft | 482 kts | 31° |
| 2026-05-07 00:48 | 38.40535 | -5.63333 | 36915 ft | 480 kts | 31° |
| 2026-05-07 00:49 | 38.46200 | -5.58729 | 36929 ft | 480 kts | 31° |
| 2026-05-07 00:49 | 38.51802 | -5.54170 | 36915 ft | 480 kts | 31° |
| 2026-05-07 00:50 | 38.57412 | -5.49596 | 36912 ft | 479 kts | 31° |
| 2026-05-07 00:50 | 38.63031 | -5.45038 | 36920 ft | 480 kts | 30° |
| 2026-05-07 00:51 | 38.68680 | -5.40474 | 36926 ft | 480 kts | 31° |
| 2026-05-07 00:51 | 38.74340 | -5.35890 | 36914 ft | 480 kts | 31° |
| 2026-05-07 00:52 | 38.79930 | -5.31355 | 36902 ft | 479 kts | 31° |
| 2026-05-07 00:52 | 38.85576 | -5.26767 | 36901 ft | 478 kts | 31° |
| 2026-05-07 00:53 | 38.88336 | -5.24519 | 36892 ft | 467 kts | 31° |
| 2026-05-07 00:53 | 38.91027 | -5.22326 | 36897 ft | 457 kts | 31° |
| 2026-05-07 00:53 | 38.96391 | -5.17950 | 36913 ft | 457 kts | 31° |
| 2026-05-07 00:54 | 39.01826 | -5.13500 | 36440 ft | 472 kts | 32° |
| 2026-05-07 00:54 | 39.04583 | -5.11225 | 35995 ft | 471 kts | 32° |
| 2026-05-07 00:54 | 39.07304 | -5.08976 | 35597 ft | 465 kts | 32° |
| 2026-05-07 00:55 | 39.10007 | -5.06743 | 35157 ft | 460 kts | 32° |
| 2026-05-07 00:55 | 39.12663 | -5.04545 | 34709 ft | 457 kts | 32° |
| 2026-05-07 00:55 | 39.15351 | -5.02318 | 34215 ft | 458 kts | 32° |
| 2026-05-07 00:55 | 39.18024 | -5.00103 | 33662 ft | 462 kts | 32° |
| 2026-05-07 00:56 | 39.20738 | -4.97851 | 33106 ft | 466 kts | 32° |
| 2026-05-07 00:56 | 39.23476 | -4.95579 | 32550 ft | 467 kts | 32° |
| 2026-05-07 00:56 | 39.26178 | -4.93332 | 31999 ft | 467 kts | 32° |
| 2026-05-07 00:56 | 39.28930 | -4.91043 | 31445 ft | 467 kts | 32° |
| 2026-05-07 00:57 | 39.31625 | -4.88797 | 30911 ft | 466 kts | 32° |
| 2026-05-07 00:57 | 39.34343 | -4.86532 | 30365 ft | 462 kts | 32° |
| 2026-05-07 00:57 | 39.37026 | -4.84294 | 29855 ft | 457 kts | 32° |
| 2026-05-07 00:57 | 39.39665 | -4.82090 | 29359 ft | 452 kts | 32° |
| 2026-05-07 00:58 | 39.42289 | -4.79897 | 28867 ft | 446 kts | 32° |
| 2026-05-07 00:58 | 39.44861 | -4.77745 | 28386 ft | 441 kts | 32° |
| 2026-05-07 00:58 | 39.47426 | -4.75598 | 27907 ft | 437 kts | 32° |
| 2026-05-07 00:58 | 39.49991 | -4.73447 | 27425 ft | 433 kts | 32° |
| 2026-05-07 00:59 | 39.54995 | -4.69248 | 26497 ft | 425 kts | 32° |
| 2026-05-07 00:59 | 39.57433 | -4.67199 | 26038 ft | 421 kts | 32° |
| 2026-05-07 00:59 | 39.59887 | -4.65136 | 25583 ft | 417 kts | 32° |
| 2026-05-07 01:00 | 39.62331 | -4.63078 | 25127 ft | 413 kts | 32° |
| 2026-05-07 01:00 | 39.64705 | -4.61078 | 24678 ft | 409 kts | 32° |
| 2026-05-07 01:00 | 39.67097 | -4.59061 | 24222 ft | 405 kts | 33° |
| 2026-05-07 01:00 | 39.69442 | -4.57083 | 23780 ft | 402 kts | 33° |
| 2026-05-07 01:01 | 39.71772 | -4.55115 | 23328 ft | 399 kts | 33° |
| 2026-05-07 01:01 | 39.74077 | -4.53166 | 22886 ft | 396 kts | 33° |
| 2026-05-07 01:01 | 39.76369 | -4.51228 | 22456 ft | 393 kts | 33° |
| 2026-05-07 01:01 | 39.78649 | -4.49297 | 22033 ft | 390 kts | 33° |
| 2026-05-07 01:02 | 39.80902 | -4.47389 | 21614 ft | 388 kts | 33° |
| 2026-05-07 01:02 | 39.83178 | -4.45458 | 21194 ft | 387 kts | 32° |
| 2026-05-07 01:02 | 39.85406 | -4.43568 | 20793 ft | 385 kts | 32° |
| 2026-05-07 01:02 | 39.87632 | -4.41678 | 20384 ft | 382 kts | 32° |
| 2026-05-07 01:03 | 39.89862 | -4.39783 | 19979 ft | 379 kts | 33° |
| 2026-05-07 01:03 | 39.92042 | -4.37927 | 19577 ft | 377 kts | 32° |
| 2026-05-07 01:03 | 39.94224 | -4.36070 | 19180 ft | 374 kts | 32° |
| 2026-05-07 01:03 | 39.96404 | -4.34213 | 18786 ft | 371 kts | 33° |
| 2026-05-07 01:04 | 39.98547 | -4.32393 | 18693 ft | 361 kts | 33° |
| 2026-05-07 01:04 | 40.00660 | -4.30598 | 18708 ft | 363 kts | 33° |
| 2026-05-07 01:04 | 40.02656 | -4.28535 | 18398 ft | 378 kts | 47° |
| 2026-05-07 01:04 | 40.04203 | -4.25805 | 18044 ft | 373 kts | 64° |
| 2026-05-07 01:05 | 40.05099 | -4.22672 | 17735 ft | 363 kts | 81° |
| 2026-05-07 01:05 | 40.05271 | -4.19460 | 17461 ft | 353 kts | 98° |
| 2026-05-07 01:05 | 40.04733 | -4.16388 | 17207 ft | 346 kts | 115° |
| 2026-05-07 01:05 | 40.03541 | -4.13706 | 16973 ft | 342 kts | 132° |
| 2026-05-07 01:06 | 40.01805 | -4.11628 | 16728 ft | 337 kts | 150° |
| 2026-05-07 01:06 | 39.99717 | -4.10304 | 16460 ft | 332 kts | 160° |
| 2026-05-07 01:06 | 39.97704 | -4.08834 | 16162 ft | 335 kts | 145° |
| 2026-05-07 01:06 | 39.95881 | -4.06968 | 15849 ft | 333 kts | 146° |
| 2026-05-07 01:07 | 39.93998 | -4.05201 | 15517 ft | 332 kts | 147° |
| 2026-05-07 01:07 | 39.92118 | -4.03500 | 15180 ft | 329 kts | 148° |
| 2026-05-07 01:07 | 39.90238 | -4.01839 | 14918 ft | 324 kts | 148° |
| 2026-05-07 01:07 | 39.88391 | -4.00226 | 14919 ft | 318 kts | 148° |
| 2026-05-07 01:08 | 39.86550 | -3.98591 | 14895 ft | 328 kts | 144° |
| 2026-05-07 01:08 | 39.84892 | -3.96420 | 14203 ft | 347 kts | 127° |
| 2026-05-07 01:08 | 39.83832 | -3.93620 | 14120 ft | 336 kts | 109° |
| 2026-05-07 01:08 | 39.83475 | -3.90691 | 13825 ft | 334 kts | 91° |
| 2026-05-07 01:09 | 39.83811 | -3.87708 | 13397 ft | 336 kts | 73° |
| 2026-05-07 01:09 | 39.84834 | -3.84996 | 13020 ft | 335 kts | 55° |
| 2026-05-07 01:09 | 39.86431 | -3.82821 | 12600 ft | 334 kts | 37° |
| 2026-05-07 01:09 | 39.88467 | -3.81360 | 12220 ft | 331 kts | 22° |
| 2026-05-07 01:10 | 39.90509 | -3.80018 | 11787 ft | 330 kts | 33° |
| 2026-05-07 01:10 | 39.92324 | -3.78224 | 11395 ft | 326 kts | 42° |
| 2026-05-07 01:10 | 39.94036 | -3.76286 | 10993 ft | 325 kts | 41° |
| 2026-05-07 01:10 | 39.95677 | -3.74324 | 10621 ft | 322 kts | 44° |
| 2026-05-07 01:11 | 39.97288 | -3.72295 | 10265 ft | 319 kts | 45° |
| 2026-05-07 01:11 | 39.98838 | -3.70289 | 10228 ft | 305 kts | 45° |
| 2026-05-07 01:11 | 40.00283 | -3.68392 | 10200 ft | 292 kts | 46° |
| 2026-05-07 01:11 | 40.01689 | -3.66529 | 10007 ft | 287 kts | 46° |
| 2026-05-07 01:12 | 40.03095 | -3.64656 | 9732 ft | 285 kts | 46° |
| 2026-05-07 01:12 | 40.04457 | -3.62838 | 9453 ft | 283 kts | 46° |
| 2026-05-07 01:12 | 40.05838 | -3.60991 | 9185 ft | 281 kts | 46° |
| 2026-05-07 01:12 | 40.07179 | -3.59194 | 8892 ft | 280 kts | 46° |
| 2026-05-07 01:13 | 40.08528 | -3.57386 | 8633 ft | 277 kts | 46° |
| 2026-05-07 01:13 | 40.09866 | -3.55590 | 8365 ft | 275 kts | 46° |
| 2026-05-07 01:13 | 40.11218 | -3.53776 | 8016 ft | 277 kts | 47° |
| 2026-05-07 01:13 | 40.12577 | -3.51949 | 7525 ft | 283 kts | 47° |
| 2026-05-07 01:14 | 40.13959 | -3.50092 | 7041 ft | 288 kts | 47° |
| 2026-05-07 01:14 | 40.15326 | -3.48254 | 6821 ft | 282 kts | 47° |
| 2026-05-07 01:14 | 40.16675 | -3.46440 | 6652 ft | 274 kts | 47° |
| 2026-05-07 01:14 | 40.18067 | -3.44737 | 6320 ft | 275 kts | 43° |
| 2026-05-07 01:15 | 40.19469 | -3.43097 | 6245 ft | 263 kts | 44° |
| 2026-05-07 01:15 | 40.20817 | -3.41577 | 6176 ft | 254 kts | 36° |
| 2026-05-07 01:15 | 40.22340 | -3.40400 | 5940 ft | 253 kts | 31° |
| 2026-05-07 01:15 | 40.23883 | -3.39265 | 5700 ft | 252 kts | 32° |
| 2026-05-07 01:16 | 40.25477 | -3.38372 | 5464 ft | 253 kts | 12° |
| 2026-05-07 01:16 | 40.27227 | -3.38157 | 5224 ft | 253 kts | 6° |
| 2026-05-07 01:16 | 40.28972 | -3.37990 | 5113 ft | 245 kts | 6° |
| 2026-05-07 01:16 | 40.30636 | -3.37875 | 5089 ft | 236 kts | 358° |
| 2026-05-07 01:17 | 40.32149 | -3.38508 | 5088 ft | 227 kts | 327° |
| 2026-05-07 01:17 | 40.33423 | -3.39690 | 5090 ft | 217 kts | 325° |
| 2026-05-07 01:17 | 40.34604 | -3.40820 | 5052 ft | 208 kts | 325° |
| 2026-05-07 01:17 | 40.35760 | -3.41944 | 4831 ft | 203 kts | 323° |
| 2026-05-07 01:18 | 40.36850 | -3.43059 | 4553 ft | 193 kts | 324° |
| 2026-05-07 01:18 | 40.37870 | -3.44093 | 4253 ft | 183 kts | 324° |
| 2026-05-07 01:18 | 40.38872 | -3.45104 | 3987 ft | 173 kts | 325° |
| 2026-05-07 01:18 | 40.39770 | -3.46009 | 3749 ft | 156 kts | 325° |
| 2026-05-07 01:19 | 40.40596 | -3.46840 | 3498 ft | 145 kts | 326° |
| 2026-05-07 01:19 | 40.41398 | -3.47640 | 3328 ft | 144 kts | 326° |
| 2026-05-07 01:19 | 40.42210 | -3.48448 | 3154 ft | 148 kts | 326° |
| 2026-05-07 01:19 | 40.43023 | -3.49259 | 2957 ft | 146 kts | 325° |
| 2026-05-07 01:20 | 40.43833 | -3.50072 | 2741 ft | 145 kts | 325° |
| 2026-05-07 01:20 | 40.44633 | -3.50857 | 2565 ft | 139 kts | 324° |
| 2026-05-07 01:20 | 40.45409 | -3.51656 | 2350 ft | 144 kts | 324° |
| 2026-05-07 01:20 | 40.46197 | -3.52447 | 2204 ft | 143 kts | 324° |
| 2026-05-07 01:21 | 40.46989 | -3.53243 | 2011 ft | 143 kts | 323° |
| 2026-05-07 01:21 | 40.47777 | -3.54045 | 1883 ft | 141 kts | 322° |
| 2026-05-07 01:21 | 40.48468 | -3.54746 | 1890 ft | 103 kts | 323° |
| 2026-05-07 01:21 | 40.48868 | -3.55152 | 1898 ft | 54 kts | 321° |
| 2026-05-07 01:22 | 40.49018 | -3.55309 | 1902 ft | 20 kts | 320° |
| 2026-05-07 01:22 | 40.49112 | -3.55413 | 1905 ft | 15 kts | 315° |
| 2026-05-07 01:22 | 40.49171 | -3.55494 | 1908 ft | 8 kts | 306° |
| 2026-05-07 01:22 | 40.49204 | -3.55565 | 1910 ft | 11 kts | 296° |
| 2026-05-07 01:23 | 40.49240 | -3.55678 | 1915 ft | 14 kts | 292° |
| 2026-05-07 01:23 | 40.49278 | -3.55804 | 1920 ft | 15 kts | 290° |
| 2026-05-07 01:23 | 40.49300 | -3.55934 | 1925 ft | 13 kts | 273° |
| 2026-05-07 01:23 | 40.49302 | -3.56064 | 1930 ft | 14 kts | 270° |
| 2026-05-07 01:24 | 40.49244 | -3.56142 | 1933 ft | 13 kts | 184° |
| 2026-05-07 01:24 | 40.49144 | -3.56141 | 1937 ft | 15 kts | 175° |
| 2026-05-07 01:24 | 40.49025 | -3.56140 | 1939 ft | 18 kts | 181° |
| 2026-05-07 01:24 | 40.48893 | -3.56143 | 1941 ft | 17 kts | 180° |
| 2026-05-07 01:25 | 40.48795 | -3.56151 | 1944 ft | 9 kts | 204° |
| 2026-05-07 01:25 | 40.48772 | -3.56205 | 1947 ft | 7 kts | 261° |
| 2026-05-07 01:25 | 40.48770 | -3.56288 | 1951 ft | 12 kts | 270° |
| 2026-05-07 01:25 | 40.48771 | -3.56433 | 1958 ft | 19 kts | 269° |
| 2026-05-07 01:26 | 40.48770 | -3.56636 | 1967 ft | 24 kts | 268° |
| 2026-05-07 01:26 | 40.48771 | -3.56832 | 1975 ft | 17 kts | 271° |
| 2026-05-07 01:26 | 40.48769 | -3.56952 | 1980 ft | 10 kts | 266° |
| 2026-05-07 01:26 | 40.48767 | -3.57024 | 1982 ft | 6 kts | 268° |
| 2026-05-07 01:27 | 40.48765 | -3.57131 | 1987 ft | 14 kts | 269° |
| 2026-05-07 01:27 | 40.48732 | -3.57231 | 1990 ft | 11 kts | 207° |
| 2026-05-07 01:27 | 40.48667 | -3.57302 | 1993 ft | 13 kts | 231° |
| 2026-05-07 01:27 | 40.48609 | -3.57405 | 1997 ft | 14 kts | 233° |
| 2026-05-07 01:28 | 40.48555 | -3.57499 | 2002 ft | 11 kts | 233° |
| 2026-05-07 01:28 | 40.48495 | -3.57553 | 2004 ft | 10 kts | 206° |
| 2026-05-07 01:28 | 40.48455 | -3.57623 | 2006 ft | 11 kts | 260° |
| 2026-05-07 01:28 | 40.48429 | -3.57717 | 2006 ft | 9 kts | 233° |
| 2026-05-07 01:29 | 40.48379 | -3.57787 | 2008 ft | 9 kts | 230° |
| 2026-05-07 01:29 | 40.48322 | -3.57820 | 2010 ft | 12 kts | 158° |
| 2026-05-07 01:29 | 40.48225 | -3.57728 | 2010 ft | 21 kts | 142° |
| 2026-05-07 01:29 | 40.48105 | -3.57604 | 2009 ft | 23 kts | 139° |
| 2026-05-07 01:30 | 40.47974 | -3.57470 | 2006 ft | 23 kts | 142° |
| 2026-05-07 01:30 | 40.47844 | -3.57339 | 2003 ft | 23 kts | 142° |
| 2026-05-07 01:30 | 40.47719 | -3.57213 | 2001 ft | 21 kts | 141° |
| 2026-05-07 01:30 | 40.47604 | -3.57095 | 1997 ft | 20 kts | 143° |
| 2026-05-07 01:31 | 40.47495 | -3.56982 | 1993 ft | 20 kts | 141° |
| 2026-05-07 01:31 | 40.47373 | -3.56860 | 1988 ft | 23 kts | 143° |
| 2026-05-07 01:31 | 40.47239 | -3.56723 | 1985 ft | 25 kts | 142° |
| 2026-05-07 01:31 | 40.47106 | -3.56598 | 1982 ft | 21 kts | 151° |
| 2026-05-07 01:32 | 40.46982 | -3.56552 | 1982 ft | 15 kts | 177° |
| 2026-05-07 01:32 | 40.46875 | -3.56556 | 1983 ft | 15 kts | 183° |
| 2026-05-07 01:32 | 40.46762 | -3.56567 | 1984 ft | 19 kts | 182° |
| 2026-05-07 01:32 | 40.46625 | -3.56577 | 1985 ft | 17 kts | 186° |
| 2026-05-07 01:33 | 40.46514 | -3.56589 | 1985 ft | 15 kts | 184° |
| 2026-05-07 01:33 | 40.46426 | -3.56598 | 1986 ft | 10 kts | 185° |
| 2026-05-07 01:33 | 40.46368 | -3.56606 | 1985 ft | 7 kts | 186° |
| 2026-05-07 01:33 | 40.46304 | -3.56609 | 1984 ft | 9 kts | 180° |
| 2026-05-07 01:34 | 40.46240 | -3.56608 | 1983 ft | 8 kts | 170° |
| 2026-05-07 01:34 | 40.46217 | -3.56546 | 1980 ft | 7 kts | 98° |
| 2026-05-07 01:34 | 40.46168 | -3.56518 | 1978 ft | 10 kts | 184° |
| 2026-05-07 01:34 | 40.46109 | -3.56526 | 1978 ft | 6 kts | 185° |
| 2026-05-07 01:35 | 40.46018 | -3.56534 | 1978 ft | 17 kts | 184° |
| 2026-05-07 01:35 | 40.45903 | -3.56542 | 1976 ft | 15 kts | 181° |
| 2026-05-07 01:35 | 40.45820 | -3.56570 | 1975 ft | 9 kts | 230° |
| 2026-05-07 01:35 | 40.45806 | -3.56633 | 1976 ft | 4 kts | 268° |
| 2026-05-07 01:36 | 40.45805 | -3.56655 | 1976 ft | 0 kts | 269° |
| 2026-05-07 01:36 | 40.45805 | -3.56695 | 1977 ft | 9 kts | 270° |
| 2026-05-07 01:36 | 40.45805 | -3.56775 | 1979 ft | 6 kts | 270° |
| 2026-05-07 01:36 | 40.45824 | -3.56846 | 1981 ft | 9 kts | 309° |
| 2026-05-07 01:37 | 40.45842 | -3.56895 | 1983 ft | 4 kts | 268° |
| 2026-05-07 01:37 | 40.45810 | -3.56952 | 1984 ft | 11 kts | 224° |
| 2026-05-07 01:37 | 40.45759 | -3.57020 | 1986 ft | 9 kts | 238° |
| 2026-05-07 01:37 | 40.45771 | -3.57072 | 1988 ft | 5 kts | 312° |
| 2026-05-07 01:38 | 40.45792 | -3.57099 | 1990 ft | 2 kts | 315° |
| 2026-05-07 01:38 | 40.45799 | -3.57108 | 1990 ft | 0 kts | 316° |
| 2026-05-07 01:38 | 40.45806 | -3.57118 | 1991 ft | 1 kts | 315° |
| 2026-05-07 01:38 | 40.45814 | -3.57135 | 1992 ft | 2 kts | 286° |
| 2026-05-07 01:39 | 40.45810 | -3.57157 | 1992 ft | 5 kts | 244° |
| 2026-05-07 01:39 | 40.45781 | -3.57199 | 1993 ft | 4 kts | 223° |
| 2026-05-07 01:39 | 40.45773 | -3.57209 | 1993 ft | 0 kts | 224° |